^^
B2 Weather Station Historical Data
Daily Summary for December 27, 2017 Units:  Both    English   Metric
Daily Weekly Monthly Yearly Custom
  High: Low: Average:
Temperature: 4.7 °F /  -15.2 °C -6.7 °F /  -21.5 °C -1.2 °F /  -18.4 °C
Dew Point: -4.0 °F /  -20 °C -11.3 °F /  -24.1 °C -7.3 °F /  -21.8 °C
Humidity: 83% 63% 75%
Wind Speed: 11.5mph /  18.5km/h - 5.2mph /  8.4km/h
Wind Gust: 11.5mph /  18.5km/h - -
Wind- - WNW
Pressure: 30.86 in /  1044.9 hPa 30.73 in /  1040.5 hPa -
Precipitation: 0.00 in /  0 mm    
Historical Graphs
 
 
Tabular Data for December 27, 2017
Time Temperature Dew Point Pressure Wind Wind Speed Wind Gust Humidity Rainfall Rate (Hourly) solar
00:00 -1.2 °F /  -18.4 °C -6.9 °F /  -21.6 °C 30.74in /  1040.9hPa WNW 9.2mph /  14.8km/h 9.2mph /  14.8km/h 76% 0.00in /  0mm 0.0 W/m2
00:02 -1.3 °F /  -18.5 °C -7.0 °F /  -21.7 °C 30.74in /  1040.9hPa WNW 8.1mph /  13km/h 8.1mph /  13km/h 76% 0.00in /  0mm 0.0 W/m2
00:07 -1.3 °F /  -18.5 °C -7.0 °F /  -21.7 °C 30.74in /  1040.9hPa WNW 5.8mph /  9.3km/h 5.8mph /  9.3km/h 76% 0.00in /  0mm 0.0 W/m2
00:09 -1.3 °F /  -18.5 °C -7.0 °F /  -21.7 °C 30.74in /  1040.9hPa WNW 5.8mph /  9.3km/h 5.8mph /  9.3km/h 76% 0.00in /  0mm 0.0 W/m2
00:14 -1.3 °F /  -18.5 °C -7.0 °F /  -21.7 °C 30.74in /  1040.9hPa WNW 4.6mph /  7.4km/h 4.6mph /  7.4km/h 76% 0.00in /  0mm 0.0 W/m2
00:18 -1.4 °F /  -18.6 °C -7.1 °F /  -21.7 °C 30.73in /  1040.5hPa WNW 6.9mph /  11.1km/h 6.9mph /  11.1km/h 76% 0.00in /  0mm 0.0 W/m2
00:19 -1.5 °F /  -18.6 °C -7.2 °F /  -21.8 °C 30.73in /  1040.5hPa NW 5.8mph /  9.3km/h 5.8mph /  9.3km/h 76% 0.00in /  0mm 0.0 W/m2
00:24 -1.7 °F /  -18.7 °C -7.4 °F /  -21.9 °C 30.73in /  1040.5hPa WNW 6.9mph /  11.1km/h 6.9mph /  11.1km/h 76% 0.00in /  0mm 0.0 W/m2
00:25 -1.7 °F /  -18.7 °C -7.4 °F /  -21.9 °C 30.73in /  1040.5hPa WNW 8.1mph /  13km/h 8.1mph /  13km/h 76% 0.00in /  0mm 0.0 W/m2
00:30 -1.8 °F /  -18.8 °C -7.5 °F /  -21.9 °C 30.73in /  1040.5hPa WNW 8.1mph /  13km/h 8.1mph /  13km/h 76% 0.00in /  0mm 0.0 W/m2
00:35 -1.9 °F /  -18.8 °C -7.6 °F /  -22 °C 30.73in /  1040.5hPa WNW 5.8mph /  9.3km/h 5.8mph /  9.3km/h 76% 0.00in /  0mm 0.0 W/m2
00:36 -1.8 °F /  -18.8 °C -7.5 °F /  -21.9 °C 30.73in /  1040.5hPa WNW 9.0mph /  14.5km/h 9.0mph /  14.5km/h 76% 0.00in /  0mm 0.0 W/m2
00:41 -1.9 °F /  -18.8 °C -7.6 °F /  -22 °C 30.73in /  1040.5hPa WNW 8.1mph /  13km/h 8.1mph /  13km/h 76% 0.00in /  0mm 0.0 W/m2
00:46 -1.9 °F /  -18.8 °C -7.3 °F /  -21.8 °C 30.74in /  1040.9hPa WNW 6.9mph /  11.1km/h 6.9mph /  11.1km/h 77% 0.00in /  0mm 0.0 W/m2
00:47 -1.9 °F /  -18.8 °C -7.3 °F /  -21.8 °C 30.74in /  1040.9hPa WNW 6.9mph /  11.1km/h 6.9mph /  11.1km/h 77% 0.00in /  0mm 0.0 W/m2
00:52 -2.0 °F /  -18.9 °C -7.4 °F /  -21.9 °C 30.74in /  1040.9hPa WNW 3.5mph /  5.6km/h 3.5mph /  5.6km/h 77% 0.00in /  0mm 0.0 W/m2
00:53 -2.0 °F /  -18.9 °C -7.4 °F /  -21.9 °C 30.74in /  1040.9hPa WNW 7.0mph /  11.3km/h 7.0mph /  11.3km/h 77% 0.00in /  0mm 0.0 W/m2
00:55 -2.0 °F /  -18.9 °C -7.4 °F /  -21.9 °C 30.74in /  1040.9hPa WNW 6.9mph /  11.1km/h 6.9mph /  11.1km/h 77% 0.00in /  0mm 0.0 W/m2
00:58 -2.0 °F /  -18.9 °C -7.4 °F /  -21.9 °C 30.74in /  1040.9hPa WNW 6.9mph /  11.1km/h 6.9mph /  11.1km/h 77% 0.00in /  0mm 0.0 W/m2
01:00 -2.1 °F /  -18.9 °C -7.5 °F /  -21.9 °C 30.74in /  1040.9hPa WNW 6.9mph /  11.1km/h 6.9mph /  11.1km/h 77% 0.00in /  0mm 0.0 W/m2
01:03 -2.1 °F /  -18.9 °C -7.5 °F /  -21.9 °C 30.74in /  1040.9hPa WNW 5.8mph /  9.3km/h 5.8mph /  9.3km/h 77% 0.00in /  0mm 0.0 W/m2
01:08 -2.2 °F /  -19 °C -7.6 °F /  -22 °C 30.74in /  1040.9hPa WNW 6.9mph /  11.1km/h 6.9mph /  11.1km/h 77% 0.00in /  0mm 0.0 W/m2
01:09 -2.2 °F /  -19 °C -7.6 °F /  -22 °C 30.74in /  1040.9hPa WNW 5.8mph /  9.3km/h 5.8mph /  9.3km/h 77% 0.00in /  0mm 0.0 W/m2
01:10 -2.3 °F /  -19.1 °C -7.7 °F /  -22.1 °C 30.74in /  1040.9hPa WNW 5.0mph /  8km/h 5.0mph /  8km/h 77% 0.00in /  0mm 0.0 W/m2
01:14 -2.3 °F /  -19.1 °C -7.7 °F /  -22.1 °C 30.74in /  1040.9hPa WNW 6.9mph /  11.1km/h 6.9mph /  11.1km/h 77% 0.00in /  0mm 0.0 W/m2
01:15 -2.3 °F /  -19.1 °C -7.7 °F /  -22.1 °C 30.74in /  1040.9hPa WNW 5.8mph /  9.3km/h 5.8mph /  9.3km/h 77% 0.00in /  0mm 0.0 W/m2
01:20 -2.3 °F /  -19.1 °C -7.7 °F /  -22.1 °C 30.74in /  1040.9hPa WNW 9.2mph /  14.8km/h 9.2mph /  14.8km/h 77% 0.00in /  0mm 0.0 W/m2
01:21 -2.3 °F /  -19.1 °C -7.7 °F /  -22.1 °C 30.74in /  1040.9hPa WNW 9.2mph /  14.8km/h 9.2mph /  14.8km/h 77% 0.00in /  0mm 0.0 W/m2
01:26 -2.3 °F /  -19.1 °C -7.7 °F /  -22.1 °C 30.74in /  1040.9hPa WNW 9.2mph /  14.8km/h 9.2mph /  14.8km/h 77% 0.00in /  0mm 0.0 W/m2
01:28 -2.4 °F /  -19.1 °C -7.8 °F /  -22.1 °C 30.74in /  1040.9hPa NW 6.9mph /  11.1km/h 6.9mph /  11.1km/h 77% 0.00in /  0mm 0.0 W/m2
01:33 -2.3 °F /  -19.1 °C -7.5 °F /  -21.9 °C 30.74in /  1040.9hPa NW 6.0mph /  9.7km/h 6.0mph /  9.7km/h 78% 0.00in /  0mm 0.0 W/m2
01:38 -2.3 °F /  -19.1 °C -7.7 °F /  -22.1 °C 30.74in /  1040.9hPa WNW 6.9mph /  11.1km/h 6.9mph /  11.1km/h 77% 0.00in /  0mm 0.0 W/m2
01:43 -2.4 °F /  -19.1 °C -7.6 °F /  -22 °C 30.75in /  1041.2hPa WNW 4.6mph /  7.4km/h 4.6mph /  7.4km/h 78% 0.00in /  0mm 0.0 W/m2
01:44 -2.4 °F /  -19.1 °C -7.8 °F /  -22.1 °C 30.74in /  1040.9hPa WNW 4.0mph /  6.4km/h 4.0mph /  6.4km/h 77% 0.00in /  0mm 0.0 W/m2
01:49 -2.6 °F /  -19.2 °C -7.8 °F /  -22.1 °C 30.74in /  1040.9hPa NW 5.8mph /  9.3km/h 5.8mph /  9.3km/h 78% 0.00in /  0mm 0.0 W/m2
01:54 -2.7 °F /  -19.3 °C -7.9 °F /  -22.2 °C 30.75in /  1041.2hPa WNW 3.5mph /  5.6km/h 3.7mph /  6km/h 78% 0.00in /  0mm 0.0 W/m2
01:55 -2.8 °F /  -19.3 °C -8.0 °F /  -22.2 °C 30.75in /  1041.2hPa WNW 6.0mph /  9.7km/h 6.0mph /  9.7km/h 78% 0.00in /  0mm 0.0 W/m2
02:00 -2.9 °F /  -19.4 °C -8.1 °F /  -22.3 °C 30.75in /  1041.2hPa WNW 3.5mph /  5.6km/h 3.5mph /  5.6km/h 78% 0.00in /  0mm 0.0 W/m2
02:01 -2.9 °F /  -19.4 °C -8.1 °F /  -22.3 °C 30.75in /  1041.2hPa WNW 4.6mph /  7.4km/h 4.6mph /  7.4km/h 78% 0.00in /  0mm 0.0 W/m2
02:06 -3.0 °F /  -19.4 °C -8.2 °F /  -22.3 °C 30.75in /  1041.2hPa WNW 5.8mph /  9.3km/h 5.8mph /  9.3km/h 78% 0.00in /  0mm 0.0 W/m2
02:07 -3.1 °F /  -19.5 °C -8.3 °F /  -22.4 °C 30.75in /  1041.2hPa NW 4.0mph /  6.4km/h 4.0mph /  6.4km/h 78% 0.00in /  0mm 0.0 W/m2
02:13 -3.2 °F /  -19.6 °C -8.1 °F /  -22.3 °C 30.75in /  1041.2hPa NW 4.0mph /  6.4km/h 4.0mph /  6.4km/h 79% 0.00in /  0mm 0.0 W/m2
02:18 -3.3 °F /  -19.6 °C -8.2 °F /  -22.3 °C 30.75in /  1041.2hPa WNW 6.9mph /  11.1km/h 6.9mph /  11.1km/h 79% 0.00in /  0mm 0.0 W/m2
02:20 -3.3 °F /  -19.6 °C -8.2 °F /  -22.3 °C 30.75in /  1041.2hPa WNW 5.8mph /  9.3km/h 5.8mph /  9.3km/h 79% 0.00in /  0mm 0.0 W/m2
02:25 -3.4 °F /  -19.7 °C -8.3 °F /  -22.4 °C 30.75in /  1041.2hPa WNW 4.0mph /  6.4km/h 4.0mph /  6.4km/h 79% 0.00in /  0mm 0.0 W/m2
02:26 -3.4 °F /  -19.7 °C -8.3 °F /  -22.4 °C 30.75in /  1041.2hPa WNW 4.0mph /  6.4km/h 4.0mph /  6.4km/h 79% 0.00in /  0mm 0.0 W/m2
02:31 -3.5 °F /  -19.7 °C -8.4 °F /  -22.4 °C 30.75in /  1041.2hPa WNW 5.8mph /  9.3km/h 5.8mph /  9.3km/h 79% 0.00in /  0mm 0.0 W/m2
02:36 -3.5 °F /  -19.7 °C -8.4 °F /  -22.4 °C 30.75in /  1041.2hPa WNW 4.6mph /  7.4km/h 4.6mph /  7.4km/h 79% 0.00in /  0mm 0.0 W/m2
02:39 -3.5 °F /  -19.7 °C -8.4 °F /  -22.4 °C 30.75in /  1041.2hPa WNW 6.9mph /  11.1km/h 6.9mph /  11.1km/h 79% 0.00in /  0mm 0.0 W/m2
02:44 -3.5 °F /  -19.7 °C -8.4 °F /  -22.4 °C 30.75in /  1041.2hPa WNW 6.9mph /  11.1km/h 6.9mph /  11.1km/h 79% 0.00in /  0mm 0.0 W/m2
02:45 -3.5 °F /  -19.7 °C -8.4 °F /  -22.4 °C 30.75in /  1041.2hPa WNW 5.8mph /  9.3km/h 5.8mph /  9.3km/h 79% 0.00in /  0mm 0.0 W/m2
02:47 -3.5 °F /  -19.7 °C -8.4 °F /  -22.4 °C 30.75in /  1041.2hPa WNW 6.9mph /  11.1km/h 6.9mph /  11.1km/h 79% 0.00in /  0mm 0.0 W/m2
02:52 -3.5 °F /  -19.7 °C -8.4 °F /  -22.4 °C 30.75in /  1041.2hPa WNW 7.0mph /  11.3km/h 7.0mph /  11.3km/h 79% 0.00in /  0mm 0.0 W/m2
02:53 -3.5 °F /  -19.7 °C -8.4 °F /  -22.4 °C 30.75in /  1041.2hPa NW 6.9mph /  11.1km/h 6.9mph /  11.1km/h 79% 0.00in /  0mm 0.0 W/m2
02:57 -3.4 °F /  -19.7 °C -8.3 °F /  -22.4 °C 30.75in /  1041.2hPa WNW 5.8mph /  9.3km/h 5.8mph /  9.3km/h 79% 0.00in /  0mm 0.0 W/m2
02:59 -3.4 °F /  -19.7 °C -8.3 °F /  -22.4 °C 30.75in /  1041.2hPa WNW 3.5mph /  5.6km/h 3.5mph /  5.6km/h 79% 0.00in /  0mm 0.0 W/m2
03:04 -3.4 °F /  -19.7 °C -8.3 °F /  -22.4 °C 30.75in /  1041.2hPa WNW 4.6mph /  7.4km/h 4.6mph /  7.4km/h 79% 0.00in /  0mm 0.0 W/m2
03:05 -3.4 °F /  -19.7 °C -8.3 °F /  -22.4 °C 30.75in /  1041.2hPa WNW 4.6mph /  7.4km/h 4.6mph /  7.4km/h 79% 0.00in /  0mm 0.0 W/m2
03:06 -3.4 °F /  -19.7 °C -8.5 °F /  -22.5 °C 30.75in /  1041.2hPa WNW 3.5mph /  5.6km/h 3.5mph /  5.6km/h 78% 0.00in /  0mm 0.0 W/m2
03:11 -3.5 °F /  -19.7 °C -8.6 °F /  -22.6 °C 30.75in /  1041.2hPa NW 4.6mph /  7.4km/h 4.6mph /  7.4km/h 78% 0.00in /  0mm 0.0 W/m2
03:16 -3.6 °F /  -19.8 °C -8.7 °F /  -22.6 °C 30.75in /  1041.2hPa WNW 8.1mph /  13km/h 8.1mph /  13km/h 78% 0.00in /  0mm 0.0 W/m2
03:17 -3.6 °F /  -19.8 °C -8.7 °F /  -22.6 °C 30.75in /  1041.2hPa WNW 8.1mph /  13km/h 8.1mph /  13km/h 78% 0.00in /  0mm 0.0 W/m2
03:18 -3.6 °F /  -19.8 °C -8.7 °F /  -22.6 °C 30.75in /  1041.2hPa WNW 5.8mph /  9.3km/h 5.8mph /  9.3km/h 78% 0.00in /  0mm 0.0 W/m2
03:22 -3.8 °F /  -19.9 °C -8.9 °F /  -22.7 °C 30.75in /  1041.2hPa WNW 5.8mph /  9.3km/h 5.8mph /  9.3km/h 78% 0.00in /  0mm 0.0 W/m2
03:27 -3.9 °F /  -19.9 °C -9.0 °F /  -22.8 °C 30.75in /  1041.2hPa NW 6.9mph /  11.1km/h 6.9mph /  11.1km/h 78% 0.00in /  0mm 0.0 W/m2
03:28 -3.9 °F /  -19.9 °C -9.0 °F /  -22.8 °C 30.75in /  1041.2hPa NW 6.9mph /  11.1km/h 6.9mph /  11.1km/h 78% 0.00in /  0mm 0.0 W/m2
03:29 -3.9 °F /  -19.9 °C -9.0 °F /  -22.8 °C 30.75in /  1041.2hPa WNW 8.1mph /  13km/h 8.1mph /  13km/h 78% 0.00in /  0mm 0.0 W/m2
03:34 -4.0 °F /  -20 °C -9.1 °F /  -22.8 °C 30.76in /  1041.5hPa WNW 8.1mph /  13km/h 8.1mph /  13km/h 78% 0.00in /  0mm 0.0 W/m2
03:36 -4.0 °F /  -20 °C -9.1 °F /  -22.8 °C 30.76in /  1041.5hPa WNW 5.8mph /  9.3km/h 5.8mph /  9.3km/h 78% 0.00in /  0mm 0.0 W/m2
03:39 -4.1 °F /  -20.1 °C -9.2 °F /  -22.9 °C 30.76in /  1041.5hPa WNW 6.9mph /  11.1km/h 6.9mph /  11.1km/h 78% 0.00in /  0mm 0.0 W/m2
03:44 -4.2 °F /  -20.1 °C -9.3 °F /  -22.9 °C 30.75in /  1041.2hPa WNW 5.8mph /  9.3km/h 5.8mph /  9.3km/h 78% 0.00in /  0mm 0.0 W/m2
03:45 -4.3 °F /  -20.2 °C -9.4 °F /  -23 °C 30.75in /  1041.2hPa WNW 5.8mph /  9.3km/h 5.8mph /  9.3km/h 78% 0.00in /  0mm 0.0 W/m2
03:50 -4.4 °F /  -20.2 °C -9.5 °F /  -23.1 °C 30.75in /  1041.2hPa NW 8.1mph /  13km/h 8.1mph /  13km/h 78% 0.00in /  0mm 0.0 W/m2
03:54 -4.4 °F /  -20.2 °C -9.5 °F /  -23.1 °C 30.75in /  1041.2hPa NW 3.5mph /  5.6km/h 3.5mph /  5.6km/h 78% 0.00in /  0mm 0.0 W/m2
03:55 -4.4 °F /  -20.2 °C -9.5 °F /  -23.1 °C 30.75in /  1041.2hPa NW 3.5mph /  5.6km/h 3.5mph /  5.6km/h 78% 0.00in /  0mm 0.0 W/m2
04:00 -4.6 °F /  -20.3 °C -9.7 °F /  -23.2 °C 30.75in /  1041.2hPa NW 6.9mph /  11.1km/h 6.9mph /  11.1km/h 78% 0.00in /  0mm 0.0 W/m2
04:01 -4.6 °F /  -20.3 °C -9.7 °F /  -23.2 °C 30.75in /  1041.2hPa WNW 5.8mph /  9.3km/h 5.8mph /  9.3km/h 78% 0.00in /  0mm 0.0 W/m2
04:06 -4.7 °F /  -20.4 °C -9.8 °F /  -23.2 °C 30.75in /  1041.2hPa WNW 4.0mph /  6.4km/h 4.0mph /  6.4km/h 78% 0.00in /  0mm 0.0 W/m2
04:08 -4.7 °F /  -20.4 °C -9.8 °F /  -23.2 °C 30.76in /  1041.5hPa WNW 4.0mph /  6.4km/h 4.0mph /  6.4km/h 78% 0.00in /  0mm 0.0 W/m2
04:13 -4.9 °F /  -20.5 °C -10.0 °F /  -23.3 °C 30.76in /  1041.5hPa WNW 5.8mph /  9.3km/h 5.8mph /  9.3km/h 78% 0.00in /  0mm 0.0 W/m2
04:14 -4.9 °F /  -20.5 °C -10.0 °F /  -23.3 °C 30.76in /  1041.5hPa WNW 5.8mph /  9.3km/h 5.8mph /  9.3km/h 78% 0.00in /  0mm 0.0 W/m2
04:17 -4.9 °F /  -20.5 °C -9.7 °F /  -23.2 °C 30.76in /  1041.5hPa WNW 6.9mph /  11.1km/h 6.9mph /  11.1km/h 79% 0.00in /  0mm 0.0 W/m2
04:22 -5.1 °F /  -20.6 °C -9.9 °F /  -23.3 °C 30.76in /  1041.5hPa WNW 3.5mph /  5.6km/h 3.5mph /  5.6km/h 79% 0.00in /  0mm 0.0 W/m2
04:23 -5.1 °F /  -20.6 °C -9.9 °F /  -23.3 °C 30.76in /  1041.5hPa WNW 5.0mph /  8km/h 5.0mph /  8km/h 79% 0.00in /  0mm 0.0 W/m2
04:28 -5.2 °F /  -20.7 °C -10.0 °F /  -23.3 °C 30.76in /  1041.5hPa WNW 5.8mph /  9.3km/h 5.8mph /  9.3km/h 79% 0.00in /  0mm 0.0 W/m2
04:32 -5.3 °F /  -20.7 °C -10.1 °F /  -23.4 °C 30.76in /  1041.5hPa WNW 4.6mph /  7.4km/h 4.6mph /  7.4km/h 79% 0.00in /  0mm 0.0 W/m2
04:33 -5.3 °F /  -20.7 °C -10.1 °F /  -23.4 °C 30.76in /  1041.5hPa WNW 6.9mph /  11.1km/h 6.9mph /  11.1km/h 79% 0.00in /  0mm 0.0 W/m2
04:38 -5.3 °F /  -20.7 °C -10.1 °F /  -23.4 °C 30.76in /  1041.5hPa WNW 5.8mph /  9.3km/h 5.8mph /  9.3km/h 79% 0.00in /  0mm 0.0 W/m2
04:41 -5.4 °F /  -20.8 °C -10.2 °F /  -23.4 °C 30.76in /  1041.5hPa WNW 5.8mph /  9.3km/h 5.8mph /  9.3km/h 79% 0.00in /  0mm 0.0 W/m2
04:44 -5.4 °F /  -20.8 °C -10.2 °F /  -23.4 °C 30.76in /  1041.5hPa WNW 5.8mph /  9.3km/h 5.8mph /  9.3km/h 79% 0.00in /  0mm 0.0 W/m2
04:49 -5.4 °F /  -20.8 °C -10.2 °F /  -23.4 °C 30.77in /  1041.9hPa WNW 6.9mph /  11.1km/h 6.9mph /  11.1km/h 79% 0.00in /  0mm 0.0 W/m2
04:53 -5.5 °F /  -20.8 °C -10.3 °F /  -23.5 °C 30.77in /  1041.9hPa WNW 8.1mph /  13km/h 8.1mph /  13km/h 79% 0.00in /  0mm 0.0 W/m2
04:56 -5.5 °F /  -20.8 °C -10.3 °F /  -23.5 °C 30.77in /  1041.9hPa WNW 6.9mph /  11.1km/h 6.9mph /  11.1km/h 79% 0.00in /  0mm 0.0 W/m2
05:01 -5.5 °F /  -20.8 °C -10.3 °F /  -23.5 °C 30.77in /  1041.9hPa WNW 4.6mph /  7.4km/h 4.6mph /  7.4km/h 79% 0.00in /  0mm 0.0 W/m2
05:06 -5.5 °F /  -20.8 °C -10.3 °F /  -23.5 °C 30.77in /  1041.9hPa WNW 5.8mph /  9.3km/h 5.8mph /  9.3km/h 79% 0.00in /  0mm 0.0 W/m2
05:07 -5.5 °F /  -20.8 °C -10.3 °F /  -23.5 °C 30.77in /  1041.9hPa WNW 6.9mph /  11.1km/h 6.9mph /  11.1km/h 79% 0.00in /  0mm 0.0 W/m2
05:08 -5.6 °F /  -20.9 °C -10.4 °F /  -23.6 °C 30.77in /  1041.9hPa WNW 4.6mph /  7.4km/h 4.6mph /  7.4km/h 79% 0.00in /  0mm 0.0 W/m2
05:13 -5.7 °F /  -20.9 °C -10.5 °F /  -23.6 °C 30.77in /  1041.9hPa West 6.0mph /  9.7km/h 6.0mph /  9.7km/h 79% 0.00in /  0mm 0.0 W/m2
05:14 -5.7 °F /  -20.9 °C -10.5 °F /  -23.6 °C 30.77in /  1041.9hPa WNW 5.8mph /  9.3km/h 5.8mph /  9.3km/h 79% 0.00in /  0mm 0.0 W/m2
05:19 -5.7 °F /  -20.9 °C -10.3 °F /  -23.5 °C 30.77in /  1041.9hPa West 6.0mph /  9.7km/h 6.0mph /  9.7km/h 80% 0.00in /  0mm 0.0 W/m2
05:20 -5.8 °F /  -21 °C -10.4 °F /  -23.6 °C 30.77in /  1041.9hPa WNW 6.9mph /  11.1km/h 6.9mph /  11.1km/h 80% 0.00in /  0mm 0.0 W/m2
05:25 -5.8 °F /  -21 °C -10.4 °F /  -23.6 °C 30.77in /  1041.9hPa WNW 5.8mph /  9.3km/h 5.8mph /  9.3km/h 80% 0.00in /  0mm 0.0 W/m2
05:30 -5.9 °F /  -21.1 °C -10.5 °F /  -23.6 °C 30.77in /  1041.9hPa WNW 6.0mph /  9.7km/h 6.0mph /  9.7km/h 80% 0.00in /  0mm 0.0 W/m2
05:31 -5.9 °F /  -21.1 °C -10.5 °F /  -23.6 °C 30.78in /  1042.2hPa WNW 5.8mph /  9.3km/h 5.8mph /  9.3km/h 80% 0.00in /  0mm 0.0 W/m2
05:36 -5.9 °F /  -21.1 °C -10.5 °F /  -23.6 °C 30.78in /  1042.2hPa WNW 6.9mph /  11.1km/h 6.9mph /  11.1km/h 80% 0.00in /  0mm 0.0 W/m2
05:37 -5.9 °F /  -21.1 °C -10.5 °F /  -23.6 °C 30.77in /  1041.9hPa WNW 6.9mph /  11.1km/h 6.9mph /  11.1km/h 80% 0.00in /  0mm 0.0 W/m2
05:41 -6.0 °F /  -21.1 °C -10.6 °F /  -23.7 °C 30.77in /  1041.9hPa WNW 6.0mph /  9.7km/h 6.0mph /  9.7km/h 80% 0.00in /  0mm 0.0 W/m2
05:44 -6.0 °F /  -21.1 °C -10.6 °F /  -23.7 °C 30.78in /  1042.2hPa WNW 4.0mph /  6.4km/h 4.0mph /  6.4km/h 80% 0.00in /  0mm 0.0 W/m2
05:47 -6.1 °F /  -21.2 °C -10.7 °F /  -23.7 °C 30.78in /  1042.2hPa WNW 5.8mph /  9.3km/h 5.8mph /  9.3km/h 80% 0.00in /  0mm 0.0 W/m2
05:51 -6.1 °F /  -21.2 °C -10.7 °F /  -23.7 °C 30.78in /  1042.2hPa WNW 4.6mph /  7.4km/h 4.6mph /  7.4km/h 80% 0.00in /  0mm 0.0 W/m2
05:56 -6.2 °F /  -21.2 °C -10.8 °F /  -23.8 °C 30.78in /  1042.2hPa WNW 5.8mph /  9.3km/h 5.8mph /  9.3km/h 80% 0.00in /  0mm 0.0 W/m2
06:01 -6.2 °F /  -21.2 °C -10.8 °F /  -23.8 °C 30.78in /  1042.2hPa WNW 5.8mph /  9.3km/h 5.8mph /  9.3km/h 80% 0.00in /  0mm 0.0 W/m2
06:04 -6.2 °F /  -21.2 °C -10.8 °F /  -23.8 °C 30.78in /  1042.2hPa WNW 4.6mph /  7.4km/h 4.6mph /  7.4km/h 80% 0.00in /  0mm 0.0 W/m2
06:09 -6.2 °F /  -21.2 °C -10.5 °F /  -23.6 °C 30.79in /  1042.5hPa WNW 5.8mph /  9.3km/h 5.8mph /  9.3km/h 81% 0.00in /  0mm 0.0 W/m2
06:10 -6.2 °F /  -21.2 °C -10.5 °F /  -23.6 °C 30.79in /  1042.5hPa WNW 4.6mph /  7.4km/h 4.6mph /  7.4km/h 81% 0.00in /  0mm 0.0 W/m2
06:12 -6.2 °F /  -21.2 °C -10.8 °F /  -23.8 °C 30.79in /  1042.5hPa WNW 4.6mph /  7.4km/h 4.6mph /  7.4km/h 80% 0.00in /  0mm 0.0 W/m2
06:15 -6.3 °F /  -21.3 °C -10.9 °F /  -23.8 °C 30.79in /  1042.5hPa WNW 4.6mph /  7.4km/h 4.6mph /  7.4km/h 80% 0.00in /  0mm 0.0 W/m2
06:19 -6.4 °F /  -21.3 °C -11.0 °F /  -23.9 °C 30.79in /  1042.5hPa WNW 5.8mph /  9.3km/h 5.8mph /  9.3km/h 80% 0.00in /  0mm 0.0 W/m2
06:22 -6.4 °F /  -21.3 °C -11.0 °F /  -23.9 °C 30.79in /  1042.5hPa WNW 3.5mph /  5.6km/h 3.5mph /  5.6km/h 80% 0.00in /  0mm 0.0 W/m2
06:27 -6.5 °F /  -21.4 °C -11.1 °F /  -23.9 °C 30.79in /  1042.5hPa WNW 3.5mph /  5.6km/h 3.5mph /  5.6km/h 80% 0.00in /  0mm 0.0 W/m2
06:28 -6.5 °F /  -21.4 °C -11.1 °F /  -23.9 °C 30.79in /  1042.5hPa WNW 3.5mph /  5.6km/h 3.5mph /  5.6km/h 80% 0.00in /  0mm 0.0 W/m2
06:32 -6.5 °F /  -21.4 °C -11.1 °F /  -23.9 °C 30.80in /  1042.9hPa WNW 4.6mph /  7.4km/h 4.6mph /  7.4km/h 80% 0.00in /  0mm 0.0 W/m2
06:33 -6.5 °F /  -21.4 °C -11.1 °F /  -23.9 °C 30.80in /  1042.9hPa WNW 4.6mph /  7.4km/h 4.6mph /  7.4km/h 80% 0.00in /  0mm 0.0 W/m2
06:38 -6.5 °F /  -21.4 °C -11.1 °F /  -23.9 °C 30.80in /  1042.9hPa WNW 3.5mph /  5.6km/h 3.5mph /  5.6km/h 80% 0.00in /  0mm 0.0 W/m2
06:39 -6.5 °F /  -21.4 °C -11.1 °F /  -23.9 °C 30.80in /  1042.9hPa WNW 3.5mph /  5.6km/h 3.5mph /  5.6km/h 80% 0.00in /  0mm 0.0 W/m2
06:44 -6.6 °F /  -21.4 °C -11.2 °F /  -24 °C 30.80in /  1042.9hPa WNW 3.5mph /  5.6km/h 3.5mph /  5.6km/h 80% 0.00in /  0mm 0.0 W/m2
06:45 -6.6 °F /  -21.4 °C -11.2 °F /  -24 °C 30.80in /  1042.9hPa WNW 3.5mph /  5.6km/h 3.5mph /  5.6km/h 80% 0.00in /  0mm 0.0 W/m2
06:50 -6.7 °F /  -21.5 °C -11.0 °F /  -23.9 °C 30.80in /  1042.9hPa WNW 4.6mph /  7.4km/h 4.6mph /  7.4km/h 81% 0.00in /  0mm 0.0 W/m2
06:54 -6.7 °F /  -21.5 °C -11.0 °F /  -23.9 °C 30.80in /  1042.9hPa WNW 3.5mph /  5.6km/h 3.5mph /  5.6km/h 81% 0.00in /  0mm 0.0 W/m2
06:55 -6.7 °F /  -21.5 °C -11.0 °F /  -23.9 °C 30.80in /  1042.9hPa WNW 3.5mph /  5.6km/h 3.5mph /  5.6km/h 81% 0.00in /  0mm 0.0 W/m2
07:00 -6.7 °F /  -21.5 °C -11.0 °F /  -23.9 °C 30.80in /  1042.9hPa WNW 4.6mph /  7.4km/h 4.6mph /  7.4km/h 81% 0.00in /  0mm 0.0 W/m2
07:02 -6.7 °F /  -21.5 °C -11.0 °F /  -23.9 °C 30.80in /  1042.9hPa West 2.3mph /  3.7km/h 2.3mph /  3.7km/h 81% 0.00in /  0mm 0.0 W/m2
07:07 -6.6 °F /  -21.4 °C -10.9 °F /  -23.8 °C 30.80in /  1042.9hPa WNW 4.0mph /  6.4km/h 4.0mph /  6.4km/h 81% 0.00in /  0mm 0.0 W/m2
07:10 -6.7 °F /  -21.5 °C -11.0 °F /  -23.9 °C 30.80in /  1042.9hPa WNW 4.6mph /  7.4km/h 4.6mph /  7.4km/h 81% 0.00in /  0mm 0.0 W/m2
07:15 -6.7 °F /  -21.5 °C -11.0 °F /  -23.9 °C 30.80in /  1042.9hPa WNW 5.8mph /  9.3km/h 5.8mph /  9.3km/h 81% 0.00in /  0mm 0.0 W/m2
07:16 -6.7 °F /  -21.5 °C -11.0 °F /  -23.9 °C 30.80in /  1042.9hPa WNW 5.8mph /  9.3km/h 5.8mph /  9.3km/h 81% 0.00in /  0mm 5.0 W/m2
07:17 -6.7 °F /  -21.5 °C -11.0 °F /  -23.9 °C 30.80in /  1042.9hPa WNW 5.8mph /  9.3km/h 5.8mph /  9.3km/h 81% 0.00in /  0mm 5.0 W/m2
07:22 -6.6 °F /  -21.4 °C -10.9 °F /  -23.8 °C 30.81in /  1043.2hPa WNW 6.9mph /  11.1km/h 6.9mph /  11.1km/h 81% 0.00in /  0mm 7.0 W/m2
07:27 -6.4 °F /  -21.3 °C -10.7 °F /  -23.7 °C 30.80in /  1042.9hPa WNW 6.9mph /  11.1km/h 6.9mph /  11.1km/h 81% 0.00in /  0mm 11.0 W/m2
07:28 -6.4 °F /  -21.3 °C -10.7 °F /  -23.7 °C 30.80in /  1042.9hPa WNW 6.9mph /  11.1km/h 6.9mph /  11.1km/h 81% 0.00in /  0mm 11.0 W/m2
07:30 -6.4 °F /  -21.3 °C -10.5 °F /  -23.6 °C 30.80in /  1042.9hPa WNW 6.0mph /  9.7km/h 6.0mph /  9.7km/h 82% 0.00in /  0mm 11.0 W/m2
07:33 -6.3 °F /  -21.3 °C -10.6 °F /  -23.7 °C 30.81in /  1043.2hPa WNW 6.9mph /  11.1km/h 6.9mph /  11.1km/h 81% 0.00in /  0mm 12.0 W/m2
07:49 -5.8 °F /  -21 °C -10.1 °F /  -23.4 °C 30.81in /  1043.2hPa WNW 6.0mph /  9.7km/h 6.0mph /  9.7km/h 81% 0.00in /  0mm 39.0 W/m2
07:51 -5.7 °F /  -20.9 °C -10.0 °F /  -23.3 °C 30.81in /  1043.2hPa WNW 5.8mph /  9.3km/h 5.8mph /  9.3km/h 81% 0.00in /  0mm 42.0 W/m2
07:54 -5.6 °F /  -20.9 °C -9.9 °F /  -23.3 °C 30.81in /  1043.2hPa West 6.9mph /  11.1km/h 6.9mph /  11.1km/h 81% 0.00in /  0mm 51.0 W/m2
07:59 -5.4 °F /  -20.8 °C -9.7 °F /  -23.2 °C 30.81in /  1043.2hPa WNW 5.8mph /  9.3km/h 5.8mph /  9.3km/h 81% 0.00in /  0mm 63.0 W/m2
08:00 -5.4 °F /  -20.8 °C -9.7 °F /  -23.2 °C 30.81in /  1043.2hPa West 6.9mph /  11.1km/h 6.9mph /  11.1km/h 81% 0.00in /  0mm 65.0 W/m2
08:01 -5.4 °F /  -20.8 °C -9.7 °F /  -23.2 °C 30.81in /  1043.2hPa WNW 6.9mph /  11.1km/h 6.9mph /  11.1km/h 81% 0.00in /  0mm 67.0 W/m2
08:06 -5.2 °F /  -20.7 °C -9.8 °F /  -23.2 °C 30.81in /  1043.2hPa WNW 4.6mph /  7.4km/h 4.6mph /  7.4km/h 80% 0.00in /  0mm 79.0 W/m2
08:07 -5.2 °F /  -20.7 °C -9.8 °F /  -23.2 °C 30.81in /  1043.2hPa WNW 4.6mph /  7.4km/h 4.6mph /  7.4km/h 80% 0.00in /  0mm 81.0 W/m2
08:12 -5.0 °F /  -20.6 °C -9.6 °F /  -23.1 °C 30.81in /  1043.2hPa WNW 4.6mph /  7.4km/h 4.6mph /  7.4km/h 80% 0.00in /  0mm 95.0 W/m2
08:17 -4.8 °F /  -20.4 °C -9.4 °F /  -23 °C 30.82in /  1043.6hPa WNW 4.6mph /  7.4km/h 4.9mph /  7.9km/h 80% 0.00in /  0mm 109.0 W/m2
08:18 -4.8 °F /  -20.4 °C -9.4 °F /  -23 °C 30.82in /  1043.6hPa WNW 8.1mph /  13km/h 8.1mph /  13km/h 80% 0.00in /  0mm 111.0 W/m2
08:23 -4.6 °F /  -20.3 °C -9.5 °F /  -23.1 °C 30.82in /  1043.6hPa WNW 6.9mph /  11.1km/h 6.9mph /  11.1km/h 79% 0.00in /  0mm 127.0 W/m2
08:26 -4.4 °F /  -20.2 °C -9.3 °F /  -22.9 °C 30.82in /  1043.6hPa NW 9.2mph /  14.8km/h 9.2mph /  14.8km/h 79% 0.00in /  0mm 137.0 W/m2
08:28 -4.3 °F /  -20.2 °C -9.2 °F /  -22.9 °C 30.82in /  1043.6hPa WNW 9.2mph /  14.8km/h 9.2mph /  14.8km/h 79% 0.00in /  0mm 142.0 W/m2
08:33 -4.0 °F /  -20 °C -8.9 °F /  -22.7 °C 30.82in /  1043.6hPa WNW 9.2mph /  14.8km/h 9.2mph /  14.8km/h 79% 0.00in /  0mm 156.0 W/m2
08:34 -3.9 °F /  -19.9 °C -8.8 °F /  -22.7 °C 30.82in /  1043.6hPa West 10.4mph /  16.7km/h 10.4mph /  16.7km/h 79% 0.00in /  0mm 160.0 W/m2
08:35 -3.9 °F /  -19.9 °C -8.8 °F /  -22.7 °C 30.82in /  1043.6hPa NW 6.9mph /  11.1km/h 6.9mph /  11.1km/h 79% 0.00in /  0mm 162.0 W/m2
08:40 -3.7 °F /  -19.8 °C -8.8 °F /  -22.7 °C 30.82in /  1043.6hPa WNW 5.8mph /  9.3km/h 5.8mph /  9.3km/h 78% 0.00in /  0mm 178.0 W/m2
08:41 -3.7 °F /  -19.8 °C -8.8 °F /  -22.7 °C 30.82in /  1043.6hPa WNW 5.8mph /  9.3km/h 5.8mph /  9.3km/h 78% 0.00in /  0mm 178.0 W/m2
08:44 -3.6 °F /  -19.8 °C -8.7 °F /  -22.6 °C 30.82in /  1043.6hPa NW 8.1mph /  13km/h 8.1mph /  13km/h 78% 0.00in /  0mm 188.0 W/m2
08:46 -3.6 °F /  -19.8 °C -8.7 °F /  -22.6 °C 30.82in /  1043.6hPa NW 9.0mph /  14.5km/h 9.0mph /  14.5km/h 78% 0.00in /  0mm 195.0 W/m2
08:50 -3.5 °F /  -19.7 °C -8.9 °F /  -22.7 °C 30.82in /  1043.6hPa NW 10.4mph /  16.7km/h 10.4mph /  16.7km/h 77% 0.00in /  0mm 206.0 W/m2
08:51 -3.5 °F /  -19.7 °C -8.9 °F /  -22.7 °C 30.82in /  1043.6hPa NW 8.1mph /  13km/h 8.1mph /  13km/h 77% 0.00in /  0mm 211.0 W/m2
08:56 -3.3 °F /  -19.6 °C -8.7 °F /  -22.6 °C 30.82in /  1043.6hPa NW 9.2mph /  14.8km/h 9.2mph /  14.8km/h 77% 0.00in /  0mm 223.0 W/m2
08:58 -3.3 °F /  -19.6 °C -8.7 °F /  -22.6 °C 30.82in /  1043.6hPa NW 6.9mph /  11.1km/h 6.9mph /  11.1km/h 77% 0.00in /  0mm 229.0 W/m2
09:03 -3.2 °F /  -19.6 °C -8.6 °F /  -22.6 °C 30.82in /  1043.6hPa WNW 9.2mph /  14.8km/h 9.2mph /  14.8km/h 77% 0.00in /  0mm 243.0 W/m2
09:04 -3.2 °F /  -19.6 °C -8.6 °F /  -22.6 °C 30.82in /  1043.6hPa NW 9.2mph /  14.8km/h 9.2mph /  14.8km/h 77% 0.00in /  0mm 244.0 W/m2
09:05 -3.1 °F /  -19.5 °C -8.5 °F /  -22.5 °C 30.83in /  1043.9hPa NW 9.2mph /  14.8km/h 9.2mph /  14.8km/h 77% 0.00in /  0mm 250.0 W/m2
09:10 -3.0 °F /  -19.4 °C -8.7 °F /  -22.6 °C 30.83in /  1043.9hPa NW 10.4mph /  16.7km/h 10.4mph /  16.7km/h 76% 0.00in /  0mm 262.0 W/m2
09:11 -3.0 °F /  -19.4 °C -8.4 °F /  -22.4 °C 30.83in /  1043.9hPa NW 10.4mph /  16.7km/h 10.4mph /  16.7km/h 77% 0.00in /  0mm 262.0 W/m2
09:13 -2.9 °F /  -19.4 °C -8.6 °F /  -22.6 °C 30.83in /  1043.9hPa WNW 8.1mph /  13km/h 8.1mph /  13km/h 76% 0.00in /  0mm 269.0 W/m2
09:18 -2.7 °F /  -19.3 °C -8.4 °F /  -22.4 °C 30.83in /  1043.9hPa NW 5.8mph /  9.3km/h 5.8mph /  9.3km/h 76% 0.00in /  0mm 279.0 W/m2
09:21 -2.6 °F /  -19.2 °C -8.3 °F /  -22.4 °C 30.84in /  1044.2hPa NW 8.1mph /  13km/h 8.1mph /  13km/h 76% 0.00in /  0mm 287.0 W/m2
09:25 -2.5 °F /  -19.2 °C -8.2 °F /  -22.3 °C 30.84in /  1044.2hPa NW 9.2mph /  14.8km/h 9.2mph /  14.8km/h 76% 0.00in /  0mm 295.0 W/m2
09:29 -2.4 °F /  -19.1 °C -8.4 °F /  -22.4 °C 30.84in /  1044.2hPa NW 10.4mph /  16.7km/h 10.4mph /  16.7km/h 75% 0.00in /  0mm 302.0 W/m2
09:31 -2.3 °F /  -19.1 °C -8.3 °F /  -22.4 °C 30.85in /  1044.6hPa NW 6.9mph /  11.1km/h 6.9mph /  11.1km/h 75% 0.00in /  0mm 309.0 W/m2
09:36 -2.1 °F /  -18.9 °C -8.1 °F /  -22.3 °C 30.85in /  1044.6hPa NW 10.4mph /  16.7km/h 10.4mph /  16.7km/h 75% 0.00in /  0mm 318.0 W/m2
09:38 -2.1 °F /  -18.9 °C -8.1 °F /  -22.3 °C 30.85in /  1044.6hPa NW 8.1mph /  13km/h 8.1mph /  13km/h 75% 0.00in /  0mm 322.0 W/m2
09:39 -2.0 °F /  -18.9 °C -8.0 °F /  -22.2 °C 30.85in /  1044.6hPa NW 10.4mph /  16.7km/h 10.4mph /  16.7km/h 75% 0.00in /  0mm 323.0 W/m2
09:44 -1.8 °F /  -18.8 °C -7.8 °F /  -22.1 °C 30.85in /  1044.6hPa NW 11.5mph /  18.5km/h 11.5mph /  18.5km/h 75% 0.00in /  0mm 332.0 W/m2
09:45 -1.7 °F /  -18.7 °C -7.7 °F /  -22.1 °C 30.85in /  1044.6hPa NW 10.4mph /  16.7km/h 10.4mph /  16.7km/h 75% 0.00in /  0mm 336.0 W/m2
09:47 -1.7 °F /  -18.7 °C -7.7 °F /  -22.1 °C 30.86in /  1044.9hPa NW 10.4mph /  16.7km/h 10.4mph /  16.7km/h 75% 0.00in /  0mm 339.0 W/m2
09:50 -1.6 °F /  -18.7 °C -7.9 °F /  -22.2 °C 30.85in /  1044.6hPa WNW 9.2mph /  14.8km/h 9.2mph /  14.8km/h 74% 0.00in /  0mm 345.0 W/m2
09:55 -1.3 °F /  -18.5 °C -7.6 °F /  -22 °C 30.85in /  1044.6hPa NW 9.2mph /  14.8km/h 9.2mph /  14.8km/h 74% 0.00in /  0mm 355.0 W/m2
09:57 -1.3 °F /  -18.5 °C -7.6 °F /  -22 °C 30.85in /  1044.6hPa NW 9.2mph /  14.8km/h 9.2mph /  14.8km/h 74% 0.00in /  0mm 359.0 W/m2
10:02 -1.1 °F /  -18.4 °C -7.4 °F /  -21.9 °C 30.85in /  1044.6hPa NW 11.5mph /  18.5km/h 11.5mph /  18.5km/h 74% 0.00in /  0mm 367.0 W/m2
10:03 -1.0 °F /  -18.3 °C -7.3 °F /  -21.8 °C 30.85in /  1044.6hPa NW 11.5mph /  18.5km/h 11.5mph /  18.5km/h 74% 0.00in /  0mm 367.0 W/m2
10:05 -1.0 °F /  -18.3 °C -7.3 °F /  -21.8 °C 30.85in /  1044.6hPa NW 8.1mph /  13km/h 8.1mph /  13km/h 74% 0.00in /  0mm 371.0 W/m2
10:09 -0.9 °F /  -18.3 °C -7.2 °F /  -21.8 °C 30.85in /  1044.6hPa NW 10.4mph /  16.7km/h 10.4mph /  16.7km/h 74% 0.00in /  0mm 378.0 W/m2
10:13 -0.8 °F /  -18.2 °C -7.1 °F /  -21.7 °C 30.85in /  1044.6hPa NW 9.2mph /  14.8km/h 9.2mph /  14.8km/h 74% 0.00in /  0mm 385.0 W/m2
10:14 -0.8 °F /  -18.2 °C -7.1 °F /  -21.7 °C 30.86in /  1044.9hPa NW 8.1mph /  13km/h 8.1mph /  13km/h 74% 0.00in /  0mm 385.0 W/m2
10:19 -0.6 °F /  -18.1 °C -6.9 °F /  -21.6 °C 30.85in /  1044.6hPa NW 9.2mph /  14.8km/h 9.2mph /  14.8km/h 74% 0.00in /  0mm 394.0 W/m2
10:20 -0.6 °F /  -18.1 °C -6.9 °F /  -21.6 °C 30.85in /  1044.6hPa NW 11.5mph /  18.5km/h 11.5mph /  18.5km/h 74% 0.00in /  0mm 396.0 W/m2
10:21 -0.5 °F /  -18.1 °C -6.8 °F /  -21.6 °C 30.86in /  1044.9hPa NW 11.5mph /  18.5km/h 11.5mph /  18.5km/h 74% 0.00in /  0mm 396.0 W/m2
10:25 -0.4 °F /  -18 °C -6.7 °F /  -21.5 °C 30.86in /  1044.9hPa North 9.2mph /  14.8km/h 9.2mph /  14.8km/h 74% 0.00in /  0mm 403.0 W/m2
10:27 -0.2 °F /  -17.9 °C -6.5 °F /  -21.4 °C 30.86in /  1044.9hPa NW 10.4mph /  16.7km/h 10.4mph /  16.7km/h 74% 0.00in /  0mm 404.0 W/m2
10:31 -0.1 °F /  -17.8 °C -6.4 °F /  -21.3 °C 30.85in /  1044.6hPa NW 10.4mph /  16.7km/h 10.4mph /  16.7km/h 74% 0.00in /  0mm 410.0 W/m2
10:36 0.1 °F /  -17.7 °C -6.5 °F /  -21.4 °C 30.85in /  1044.6hPa NW 11.5mph /  18.5km/h 11.5mph /  18.5km/h 73% 0.00in /  0mm 417.0 W/m2
10:37 0.1 °F /  -17.7 °C -6.5 °F /  -21.4 °C 30.85in /  1044.6hPa NW 9.2mph /  14.8km/h 9.2mph /  14.8km/h 73% 0.00in /  0mm 417.0 W/m2
10:41 0.3 °F /  -17.6 °C -6.3 °F /  -21.3 °C 30.85in /  1044.6hPa WNW 9.2mph /  14.8km/h 9.2mph /  14.8km/h 73% 0.00in /  0mm 420.0 W/m2
10:43 0.4 °F /  -17.6 °C -6.5 °F /  -21.4 °C 30.85in /  1044.6hPa NW 8.1mph /  13km/h 8.1mph /  13km/h 72% 0.00in /  0mm 424.0 W/m2
10:48 0.9 °F /  -17.3 °C -5.7 °F /  -20.9 °C 30.85in /  1044.6hPa NW 8.1mph /  13km/h 8.1mph /  13km/h 73% 0.00in /  0mm 429.0 W/m2
10:53 1.0 °F /  -17.2 °C -5.9 °F /  -21.1 °C 30.85in /  1044.6hPa NW 6.9mph /  11.1km/h 6.9mph /  11.1km/h 72% 0.00in /  0mm 434.0 W/m2
10:57 1.2 °F /  -17.1 °C -5.7 °F /  -20.9 °C 30.85in /  1044.6hPa NW 9.2mph /  14.8km/h 9.2mph /  14.8km/h 72% 0.00in /  0mm 436.0 W/m2
10:59 1.2 °F /  -17.1 °C -5.7 °F /  -20.9 °C 30.85in /  1044.6hPa NW 9.0mph /  14.5km/h 9.0mph /  14.5km/h 72% 0.00in /  0mm 439.0 W/m2
11:04 1.3 °F /  -17.1 °C -5.9 °F /  -21.1 °C 30.85in /  1044.6hPa WNW 8.1mph /  13km/h 8.1mph /  13km/h 71% 0.00in /  0mm 443.0 W/m2
11:09 1.3 °F /  -17.1 °C -6.2 °F /  -21.2 °C 30.85in /  1044.6hPa NW 9.2mph /  14.8km/h 9.2mph /  14.8km/h 70% 0.00in /  0mm 446.0 W/m2
11:11 1.3 °F /  -17.1 °C -6.2 °F /  -21.2 °C 30.85in /  1044.6hPa NW 9.2mph /  14.8km/h 9.2mph /  14.8km/h 70% 0.00in /  0mm 446.0 W/m2
11:14 1.4 °F /  -17 °C -5.8 °F /  -21 °C 30.85in /  1044.6hPa NW 9.2mph /  14.8km/h 9.2mph /  14.8km/h 71% 0.00in /  0mm 448.0 W/m2
11:17 1.5 °F /  -16.9 °C -5.7 °F /  -20.9 °C 30.85in /  1044.6hPa NW 7.0mph /  11.3km/h 7.0mph /  11.3km/h 71% 0.00in /  0mm 448.0 W/m2
11:22 1.7 °F /  -16.8 °C -5.8 °F /  -21 °C 30.85in /  1044.6hPa NW 11.5mph /  18.5km/h 11.5mph /  18.5km/h 70% 0.00in /  0mm 454.0 W/m2
11:23 1.8 °F /  -16.8 °C -5.7 °F /  -20.9 °C 30.84in /  1044.2hPa NW 11.5mph /  18.5km/h 11.5mph /  18.5km/h 70% 0.00in /  0mm 454.0 W/m2
11:28 1.8 °F /  -16.8 °C -5.7 °F /  -20.9 °C 30.84in /  1044.2hPa NW 10.4mph /  16.7km/h 10.4mph /  16.7km/h 70% 0.00in /  0mm 455.0 W/m2
11:30 1.8 °F /  -16.8 °C -5.7 °F /  -20.9 °C 30.84in /  1044.2hPa NW 10.4mph /  16.7km/h 10.4mph /  16.7km/h 70% 0.00in /  0mm 457.0 W/m2
11:35 1.9 °F /  -16.7 °C -5.6 °F /  -20.9 °C 30.84in /  1044.2hPa NW 9.2mph /  14.8km/h 9.2mph /  14.8km/h 70% 0.00in /  0mm 459.0 W/m2
11:36 1.9 °F /  -16.7 °C -5.6 °F /  -20.9 °C 30.84in /  1044.2hPa WNW 10.4mph /  16.7km/h 10.4mph /  16.7km/h 70% 0.00in /  0mm 459.0 W/m2
11:40 2.1 °F /  -16.6 °C -5.4 °F /  -20.8 °C 30.83in /  1043.9hPa NW 6.9mph /  11.1km/h 6.9mph /  11.1km/h 70% 0.00in /  0mm 461.0 W/m2
11:43 2.3 °F /  -16.5 °C -5.3 °F /  -20.7 °C 30.83in /  1043.9hPa NW 9.2mph /  14.8km/h 9.2mph /  14.8km/h 70% 0.00in /  0mm 459.0 W/m2
11:47 2.4 °F /  -16.4 °C -4.9 °F /  -20.5 °C 30.83in /  1043.9hPa NNW 8.1mph /  13km/h 8.1mph /  13km/h 71% 0.00in /  0mm 461.0 W/m2
11:52 2.4 °F /  -16.4 °C -5.2 °F /  -20.7 °C 30.83in /  1043.9hPa NW 10.4mph /  16.7km/h 10.4mph /  16.7km/h 70% 0.00in /  0mm 461.0 W/m2
11:57 2.6 °F /  -16.3 °C -5.0 °F /  -20.6 °C 30.83in /  1043.9hPa NW 11.5mph /  18.5km/h 11.5mph /  18.5km/h 70% 0.00in /  0mm 461.0 W/m2
11:59 2.6 °F /  -16.3 °C -5.0 °F /  -20.6 °C 30.83in /  1043.9hPa NW 10.4mph /  16.7km/h 10.4mph /  16.7km/h 70% 0.00in /  0mm 462.0 W/m2
12:00 2.6 °F /  -16.3 °C -5.0 °F /  -20.6 °C 30.83in /  1043.9hPa NW 10.4mph /  16.7km/h 10.4mph /  16.7km/h 70% 0.00in /  0mm 461.0 W/m2
12:05 2.7 °F /  -16.3 °C -4.9 °F /  -20.5 °C 30.83in /  1043.9hPa WNW 7.0mph /  11.3km/h 7.0mph /  11.3km/h 70% 0.00in /  0mm 461.0 W/m2
12:09 2.7 °F /  -16.3 °C -4.9 °F /  -20.5 °C 30.83in /  1043.9hPa WNW 6.9mph /  11.1km/h 7.0mph /  11.3km/h 70% 0.00in /  0mm 461.0 W/m2
12:10 2.7 °F /  -16.3 °C -4.9 °F /  -20.5 °C 30.83in /  1043.9hPa WNW 7.0mph /  11.3km/h 7.0mph /  11.3km/h 70% 0.00in /  0mm 461.0 W/m2
12:15 2.9 °F /  -16.2 °C -5.0 °F /  -20.6 °C 30.84in /  1044.2hPa WNW 9.2mph /  14.8km/h 9.2mph /  14.8km/h 69% 0.00in /  0mm 459.0 W/m2
12:18 3.1 °F /  -16.1 °C -4.5 °F /  -20.3 °C 30.83in /  1043.9hPa WNW 6.9mph /  11.1km/h 6.9mph /  11.1km/h 70% 0.00in /  0mm 455.0 W/m2
12:20 3.3 °F /  -15.9 °C -4.3 °F /  -20.2 °C 30.83in /  1043.9hPa WNW 4.6mph /  7.4km/h 4.6mph /  7.4km/h 70% 0.00in /  0mm 454.0 W/m2
12:25 3.6 °F /  -15.8 °C -4.3 °F /  -20.2 °C 30.83in /  1043.9hPa WNW 6.9mph /  11.1km/h 6.9mph /  11.1km/h 69% 0.00in /  0mm 450.0 W/m2
12:26 3.6 °F /  -15.8 °C -4.3 °F /  -20.2 °C 30.83in /  1043.9hPa WNW 3.5mph /  5.6km/h 3.5mph /  5.6km/h 69% 0.00in /  0mm 454.0 W/m2
12:31 3.9 °F /  -15.6 °C -4.3 °F /  -20.2 °C 30.84in /  1044.2hPa West 9.0mph /  14.5km/h 9.0mph /  14.5km/h 68% 0.00in /  0mm 448.0 W/m2
12:32 3.9 °F /  -15.6 °C -4.3 °F /  -20.2 °C 30.84in /  1044.2hPa WNW 9.2mph /  14.8km/h 9.2mph /  14.8km/h 68% 0.00in /  0mm 450.0 W/m2
12:33 3.9 °F /  -15.6 °C -4.6 °F /  -20.3 °C 30.84in /  1044.2hPa WNW 11.5mph /  18.5km/h 11.5mph /  18.5km/h 67% 0.00in /  0mm 446.0 W/m2
12:38 4.0 °F /  -15.6 °C -4.5 °F /  -20.3 °C 30.84in /  1044.2hPa NW 8.1mph /  13km/h 8.1mph /  13km/h 67% 0.00in /  0mm 443.0 W/m2
12:39 4.0 °F /  -15.6 °C -4.5 °F /  -20.3 °C 30.84in /  1044.2hPa NW 10.0mph /  16.1km/h 10.0mph /  16.1km/h 67% 0.00in /  0mm 443.0 W/m2
12:44 4.1 °F /  -15.5 °C -4.1 °F /  -20.1 °C 30.84in /  1044.2hPa NW 11.5mph /  18.5km/h 11.5mph /  18.5km/h 68% 0.00in /  0mm 439.0 W/m2
12:45 4.1 °F /  -15.5 °C -4.1 °F /  -20.1 °C 30.84in /  1044.2hPa NW 11.5mph /  18.5km/h 11.5mph /  18.5km/h 68% 0.00in /  0mm 439.0 W/m2
12:50 4.2 °F /  -15.4 °C -4.0 °F /  -20 °C 30.84in /  1044.2hPa WNW 10.4mph /  16.7km/h 10.4mph /  16.7km/h 68% 0.00in /  0mm 436.0 W/m2
12:51 4.2 °F /  -15.4 °C -4.0 °F /  -20 °C 30.84in /  1044.2hPa WNW 11.5mph /  18.5km/h 11.5mph /  18.5km/h 68% 0.00in /  0mm 436.0 W/m2
12:52 4.2 °F /  -15.4 °C -4.3 °F /  -20.2 °C 30.84in /  1044.2hPa WNW 10.4mph /  16.7km/h 10.4mph /  16.7km/h 67% 0.00in /  0mm 432.0 W/m2
12:56 4.2 °F /  -15.4 °C -4.7 °F /  -20.4 °C 30.84in /  1044.2hPa NW 10.4mph /  16.7km/h 10.4mph /  16.7km/h 66% 0.00in /  0mm 431.0 W/m2
13:01 4.1 °F /  -15.5 °C -4.8 °F /  -20.4 °C 30.83in /  1043.9hPa WNW 10.4mph /  16.7km/h 10.4mph /  16.7km/h 66% 0.00in /  0mm 425.0 W/m2
13:03 4.2 °F /  -15.4 °C -4.7 °F /  -20.4 °C 30.83in /  1043.9hPa WNW 6.9mph /  11.1km/h 6.9mph /  11.1km/h 66% 0.00in /  0mm 424.0 W/m2
13:04 4.2 °F /  -15.4 °C -4.7 °F /  -20.4 °C 30.83in /  1043.9hPa WNW 10.4mph /  16.7km/h 10.4mph /  16.7km/h 66% 0.00in /  0mm 424.0 W/m2
13:09 4.3 °F /  -15.4 °C -4.6 °F /  -20.3 °C 30.83in /  1043.9hPa WNW 10.4mph /  16.7km/h 10.4mph /  16.7km/h 66% 0.00in /  0mm 417.0 W/m2
13:10 4.3 °F /  -15.4 °C -4.6 °F /  -20.3 °C 30.83in /  1043.9hPa WNW 10.4mph /  16.7km/h 10.4mph /  16.7km/h 66% 0.00in /  0mm 417.0 W/m2
13:12 4.4 °F /  -15.3 °C -4.5 °F /  -20.3 °C 30.83in /  1043.9hPa WNW 10.4mph /  16.7km/h 10.4mph /  16.7km/h 66% 0.00in /  0mm 413.0 W/m2
13:17 4.3 °F /  -15.4 °C -4.9 °F /  -20.5 °C 30.84in /  1044.2hPa West 10.4mph /  16.7km/h 10.4mph /  16.7km/h 65% 0.00in /  0mm 408.0 W/m2
13:19 4.4 °F /  -15.3 °C -4.8 °F /  -20.4 °C 30.83in /  1043.9hPa NW 10.4mph /  16.7km/h 10.4mph /  16.7km/h 65% 0.00in /  0mm 406.0 W/m2
13:24 4.3 °F /  -15.4 °C -4.9 °F /  -20.5 °C 30.83in /  1043.9hPa WNW 10.4mph /  16.7km/h 10.4mph /  16.7km/h 65% 0.00in /  0mm 403.0 W/m2
13:26 4.5 °F /  -15.3 °C -4.7 °F /  -20.4 °C 30.83in /  1043.9hPa WNW 10.4mph /  16.7km/h 10.4mph /  16.7km/h 65% 0.00in /  0mm 396.0 W/m2
13:29 4.5 °F /  -15.3 °C -4.7 °F /  -20.4 °C 30.83in /  1043.9hPa NW 9.2mph /  14.8km/h 9.2mph /  14.8km/h 65% 0.00in /  0mm 392.0 W/m2
13:34 4.5 °F /  -15.3 °C -5.0 °F /  -20.6 °C 30.83in /  1043.9hPa NNW 11.5mph /  18.5km/h 11.5mph /  18.5km/h 64% 0.00in /  0mm 385.0 W/m2
13:35 4.5 °F /  -15.3 °C -5.0 °F /  -20.6 °C 30.83in /  1043.9hPa WNW 10.4mph /  16.7km/h 10.4mph /  16.7km/h 64% 0.00in /  0mm 383.0 W/m2
13:40 4.7 °F /  -15.2 °C -4.8 °F /  -20.4 °C 30.83in /  1043.9hPa NW 11.5mph /  18.5km/h 11.5mph /  18.5km/h 64% 0.00in /  0mm 376.0 W/m2
13:41 4.7 °F /  -15.2 °C -4.8 °F /  -20.4 °C 30.83in /  1043.9hPa WNW 8.1mph /  13km/h 8.1mph /  13km/h 64% 0.00in /  0mm 374.0 W/m2
13:46 4.6 °F /  -15.2 °C -4.9 °F /  -20.5 °C 30.82in /  1043.6hPa NW 10.4mph /  16.7km/h 10.4mph /  16.7km/h 64% 0.00in /  0mm 367.0 W/m2
13:48 4.6 °F /  -15.2 °C -5.2 °F /  -20.7 °C 30.82in /  1043.6hPa NW 8.1mph /  13km/h 8.1mph /  13km/h 63% 0.00in /  0mm 364.0 W/m2
13:53 4.6 °F /  -15.2 °C -5.2 °F /  -20.7 °C 30.82in /  1043.6hPa WNW 11.5mph /  18.5km/h 11.5mph /  18.5km/h 63% 0.00in /  0mm 357.0 W/m2
13:54 4.7 °F /  -15.2 °C -5.1 °F /  -20.6 °C 30.82in /  1043.6hPa WNW 11.5mph /  18.5km/h 11.5mph /  18.5km/h 63% 0.00in /  0mm 355.0 W/m2
13:59 4.6 °F /  -15.2 °C -5.2 °F /  -20.7 °C 30.82in /  1043.6hPa WNW 11.5mph /  18.5km/h 11.5mph /  18.5km/h 63% 0.00in /  0mm 345.0 W/m2
14:00 4.6 °F /  -15.2 °C -5.2 °F /  -20.7 °C 30.82in /  1043.6hPa WNW 11.5mph /  18.5km/h 11.5mph /  18.5km/h 63% 0.00in /  0mm 341.0 W/m2
14:04 4.6 °F /  -15.2 °C -5.2 °F /  -20.7 °C 30.82in /  1043.6hPa NW 10.4mph /  16.7km/h 10.4mph /  16.7km/h 63% 0.00in /  0mm 332.0 W/m2
14:06 4.6 °F /  -15.2 °C -5.2 °F /  -20.7 °C 30.81in /  1043.2hPa NW 9.2mph /  14.8km/h 9.2mph /  14.8km/h 63% 0.00in /  0mm 330.0 W/m2
14:09 4.6 °F /  -15.2 °C -5.2 °F /  -20.7 °C 30.81in /  1043.2hPa NW 11.5mph /  18.5km/h 11.5mph /  18.5km/h 63% 0.00in /  0mm 308.0 W/m2
14:11 4.5 °F /  -15.3 °C -5.3 °F /  -20.7 °C 30.81in /  1043.2hPa NW 8.1mph /  13km/h 8.1mph /  13km/h 63% 0.00in /  0mm 302.0 W/m2
14:16 4.5 °F /  -15.3 °C -5.0 °F /  -20.6 °C 30.81in /  1043.2hPa NW 5.8mph /  9.3km/h 5.8mph /  9.3km/h 64% 0.00in /  0mm 304.0 W/m2
14:21 4.7 °F /  -15.2 °C -4.8 °F /  -20.4 °C 30.81in /  1043.2hPa NW 10.4mph /  16.7km/h 10.4mph /  16.7km/h 64% 0.00in /  0mm 274.0 W/m2
14:23 4.7 °F /  -15.2 °C -5.1 °F /  -20.6 °C 30.81in /  1043.2hPa WNW 10.4mph /  16.7km/h 10.4mph /  16.7km/h 63% 0.00in /  0mm 274.0 W/m2
14:26 4.6 °F /  -15.2 °C -5.2 °F /  -20.7 °C 30.81in /  1043.2hPa NW 8.1mph /  13km/h 8.1mph /  13km/h 63% 0.00in /  0mm 294.0 W/m2
14:31 4.6 °F /  -15.2 °C -4.9 °F /  -20.5 °C 30.81in /  1043.2hPa NNW 10.4mph /  16.7km/h 10.4mph /  16.7km/h 64% 0.00in /  0mm 279.0 W/m2
14:32 4.7 °F /  -15.2 °C -4.8 °F /  -20.4 °C 30.81in /  1043.2hPa NNW 10.4mph /  16.7km/h 10.4mph /  16.7km/h 64% 0.00in /  0mm 279.0 W/m2
14:37 4.6 °F /  -15.2 °C -4.9 °F /  -20.5 °C 30.81in /  1043.2hPa NW 9.2mph /  14.8km/h 9.2mph /  14.8km/h 64% 0.00in /  0mm 271.0 W/m2
14:42 4.7 °F /  -15.2 °C -4.5 °F /  -20.3 °C 30.80in /  1042.9hPa NW 8.1mph /  13km/h 8.1mph /  13km/h 65% 0.00in /  0mm 243.0 W/m2
14:43 4.7 °F /  -15.2 °C -4.5 °F /  -20.3 °C 30.80in /  1042.9hPa NNW 8.1mph /  13km/h 8.1mph /  13km/h 65% 0.00in /  0mm 239.0 W/m2
14:48 4.6 °F /  -15.2 °C -4.3 °F /  -20.2 °C 30.81in /  1043.2hPa WNW 6.9mph /  11.1km/h 6.9mph /  11.1km/h 66% 0.00in /  0mm 176.0 W/m2
14:50 4.5 °F /  -15.3 °C -4.7 °F /  -20.4 °C 30.80in /  1042.9hPa North 3.5mph /  5.6km/h 3.5mph /  5.6km/h 65% 0.00in /  0mm 153.0 W/m2
14:55 4.4 °F /  -15.3 °C -4.8 °F /  -20.4 °C 30.80in /  1042.9hPa NNW 4.6mph /  7.4km/h 4.6mph /  7.4km/h 65% 0.00in /  0mm 171.0 W/m2
14:57 4.5 °F /  -15.3 °C -4.4 °F /  -20.2 °C 30.80in /  1042.9hPa NW 5.8mph /  9.3km/h 5.8mph /  9.3km/h 66% 0.00in /  0mm 153.0 W/m2
15:02 4.4 °F /  -15.3 °C -4.5 °F /  -20.3 °C 30.80in /  1042.9hPa NW 8.1mph /  13km/h 8.1mph /  13km/h 66% 0.00in /  0mm 114.0 W/m2
15:03 4.3 °F /  -15.4 °C -4.6 °F /  -20.3 °C 30.80in /  1042.9hPa NW 8.1mph /  13km/h 8.1mph /  13km/h 66% 0.00in /  0mm 114.0 W/m2
15:08 4.2 °F /  -15.4 °C -4.7 °F /  -20.4 °C 30.80in /  1042.9hPa WNW 1.2mph /  1.9km/h 1.2mph /  1.9km/h 66% 0.00in /  0mm 84.0 W/m2
15:09 4.2 °F /  -15.4 °C -4.3 °F /  -20.2 °C 30.80in /  1042.9hPa WNW 2.3mph /  3.7km/h 2.3mph /  3.7km/h 67% 0.00in /  0mm 98.0 W/m2
15:12 4.2 °F /  -15.4 °C -4.3 °F /  -20.2 °C 30.80in /  1042.9hPa WNW 3.5mph /  5.6km/h 3.5mph /  5.6km/h 67% 0.00in /  0mm 88.0 W/m2
15:14 4.1 °F /  -15.5 °C -4.4 °F /  -20.2 °C 30.80in /  1042.9hPa WNW 3.5mph /  5.6km/h 3.5mph /  5.6km/h 67% 0.00in /  0mm 90.0 W/m2
15:19 4.0 °F /  -15.6 °C -4.5 °F /  -20.3 °C 30.80in /  1042.9hPa NW 5.8mph /  9.3km/h 5.8mph /  9.3km/h 67% 0.00in /  0mm 81.0 W/m2
15:21 4.0 °F /  -15.6 °C -4.5 °F /  -20.3 °C 30.80in /  1042.9hPa NNW 4.0mph /  6.4km/h 4.0mph /  6.4km/h 67% 0.00in /  0mm 81.0 W/m2
15:22 4.0 °F /  -15.6 °C -4.5 °F /  -20.3 °C 30.80in /  1042.9hPa NW 3.5mph /  5.6km/h 3.5mph /  5.6km/h 67% 0.00in /  0mm 81.0 W/m2
15:27 4.0 °F /  -15.6 °C -4.5 °F /  -20.3 °C 30.80in /  1042.9hPa NW 3.5mph /  5.6km/h 3.5mph /  5.6km/h 67% 0.00in /  0mm 81.0 W/m2
15:28 3.9 °F /  -15.6 °C -4.6 °F /  -20.3 °C 30.80in /  1042.9hPa NW 3.5mph /  5.6km/h 3.5mph /  5.6km/h 67% 0.00in /  0mm 83.0 W/m2
15:32 3.9 °F /  -15.6 °C -4.6 °F /  -20.3 °C 30.80in /  1042.9hPa NW 3.5mph /  5.6km/h 3.5mph /  5.6km/h 67% 0.00in /  0mm 63.0 W/m2
15:37 3.8 °F /  -15.7 °C -4.7 °F /  -20.4 °C 30.81in /  1043.2hPa WNW 3.5mph /  5.6km/h 3.5mph /  5.6km/h 67% 0.00in /  0mm 49.0 W/m2
15:39 3.8 °F /  -15.7 °C -4.7 °F /  -20.4 °C 30.81in /  1043.2hPa WNW 2.3mph /  3.7km/h 2.3mph /  3.7km/h 67% 0.00in /  0mm 46.0 W/m2
15:43 3.7 °F /  -15.7 °C -4.8 °F /  -20.4 °C 30.81in /  1043.2hPa WNW 2.3mph /  3.7km/h 2.3mph /  3.7km/h 67% 0.00in /  0mm 37.0 W/m2
15:48 3.6 °F /  -15.8 °C -4.9 °F /  -20.5 °C 30.81in /  1043.2hPa WNW 1.2mph /  1.9km/h 1.2mph /  1.9km/h 67% 0.00in /  0mm 33.0 W/m2
15:53 3.5 °F /  -15.8 °C -4.7 °F /  -20.4 °C 30.81in /  1043.2hPa WNW 3.5mph /  5.6km/h 3.5mph /  5.6km/h 68% 0.00in /  0mm 30.0 W/m2
15:54 3.4 °F /  -15.9 °C -4.8 °F /  -20.4 °C 30.81in /  1043.2hPa WNW 3.5mph /  5.6km/h 3.5mph /  5.6km/h 68% 0.00in /  0mm 28.0 W/m2
15:59 3.2 °F /  -16 °C -5.0 °F /  -20.6 °C 30.82in /  1043.6hPa WNW 2.3mph /  3.7km/h 2.3mph /  3.7km/h 68% 0.00in /  0mm 26.0 W/m2
16:04 3.1 °F /  -16.1 °C -5.1 °F /  -20.6 °C 30.82in /  1043.6hPa WNW 2.3mph /  3.7km/h 2.3mph /  3.7km/h 68% 0.00in /  0mm 23.0 W/m2
16:06 3.0 °F /  -16.1 °C -5.2 °F /  -20.7 °C 30.82in /  1043.6hPa WNW 2.3mph /  3.7km/h 2.3mph /  3.7km/h 68% 0.00in /  0mm 23.0 W/m2
16:11 2.9 °F /  -16.2 °C -5.3 °F /  -20.7 °C 30.82in /  1043.6hPa WNW 1.2mph /  1.9km/h 1.2mph /  1.9km/h 68% 0.00in /  0mm 19.0 W/m2
16:12 2.9 °F /  -16.2 °C -5.3 °F /  -20.7 °C 30.82in /  1043.6hPa Calm     68% 0.00in /  0mm 18.0 W/m2
16:17 2.8 °F /  -16.2 °C -5.1 °F /  -20.6 °C 30.82in /  1043.6hPa WNW 1.2mph /  1.9km/h 1.2mph /  1.9km/h 69% 0.00in /  0mm 12.0 W/m2
16:22 2.7 °F /  -16.3 °C -5.2 °F /  -20.7 °C 30.82in /  1043.6hPa WNW 2.3mph /  3.7km/h 2.3mph /  3.7km/h 69% 0.00in /  0mm 7.0 W/m2
16:24 2.7 °F /  -16.3 °C -5.2 °F /  -20.7 °C 30.82in /  1043.6hPa WNW 3.5mph /  5.6km/h 3.5mph /  5.6km/h 69% 0.00in /  0mm 5.0 W/m2
16:29 2.7 °F /  -16.3 °C -5.2 °F /  -20.7 °C 30.82in /  1043.6hPa WNW 3.5mph /  5.6km/h 3.5mph /  5.6km/h 69% 0.00in /  0mm 0.0 W/m2
16:30 2.7 °F /  -16.3 °C -5.2 °F /  -20.7 °C 30.82in /  1043.6hPa WNW 2.3mph /  3.7km/h 2.3mph /  3.7km/h 69% 0.00in /  0mm 0.0 W/m2
16:35 2.7 °F /  -16.3 °C -4.9 °F /  -20.5 °C 30.82in /  1043.6hPa Calm     70% 0.00in /  0mm 0.0 W/m2
16:37 2.7 °F /  -16.3 °C -4.9 °F /  -20.5 °C 30.82in /  1043.6hPa WNW 2.3mph /  3.7km/h 2.3mph /  3.7km/h 70% 0.00in /  0mm 0.0 W/m2
16:39 2.7 °F /  -16.3 °C -4.9 °F /  -20.5 °C 30.82in /  1043.6hPa WNW 1.0mph /  1.6km/h 1.0mph /  1.6km/h 70% 0.00in /  0mm 0.0 W/m2
16:44 2.7 °F /  -16.3 °C -4.9 °F /  -20.5 °C 30.82in /  1043.6hPa WNW 2.3mph /  3.7km/h 2.3mph /  3.7km/h 70% 0.00in /  0mm 0.0 W/m2
16:45 2.7 °F /  -16.3 °C -4.9 °F /  -20.5 °C 30.82in /  1043.6hPa WNW 1.2mph /  1.9km/h   70% 0.00in /  0mm 0.0 W/m2
16:49 2.8 °F /  -16.2 °C -4.8 °F /  -20.4 °C 30.82in /  1043.6hPa WNW 1.2mph /  1.9km/h 1.2mph /  1.9km/h 70% 0.00in /  0mm 0.0 W/m2
16:51 2.8 °F /  -16.2 °C -4.8 °F /  -20.4 °C 30.82in /  1043.6hPa WNW 1.2mph /  1.9km/h 1.2mph /  1.9km/h 70% 0.00in /  0mm 0.0 W/m2
16:52 2.8 °F /  -16.2 °C -4.8 °F /  -20.4 °C 30.81in /  1043.2hPa WNW 3.5mph /  5.6km/h 3.5mph /  5.6km/h 70% 0.00in /  0mm 0.0 W/m2
16:55 2.7 °F /  -16.3 °C -4.9 °F /  -20.5 °C 30.82in /  1043.6hPa WNW 1.2mph /  1.9km/h 1.2mph /  1.9km/h 70% 0.00in /  0mm 0.0 W/m2
17:00 2.7 °F /  -16.3 °C -4.9 °F /  -20.5 °C 30.82in /  1043.6hPa WNW 1.2mph /  1.9km/h 1.2mph /  1.9km/h 70% 0.00in /  0mm 0.0 W/m2
17:05 2.6 °F /  -16.3 °C -5.0 °F /  -20.6 °C 30.82in /  1043.6hPa WNW 3.0mph /  4.8km/h 3.0mph /  4.8km/h 70% 0.00in /  0mm 0.0 W/m2
17:10 2.6 °F /  -16.3 °C -5.0 °F /  -20.6 °C 30.82in /  1043.6hPa WNW 3.5mph /  5.6km/h 3.5mph /  5.6km/h 70% 0.00in /  0mm 0.0 W/m2
17:12 2.6 °F /  -16.3 °C -5.0 °F /  -20.6 °C 30.82in /  1043.6hPa WNW 3.5mph /  5.6km/h 3.5mph /  5.6km/h 70% 0.00in /  0mm 0.0 W/m2
17:17 2.5 °F /  -16.4 °C -5.1 °F /  -20.6 °C 30.82in /  1043.6hPa WNW 2.3mph /  3.7km/h 2.3mph /  3.7km/h 70% 0.00in /  0mm 0.0 W/m2
17:18 2.5 °F /  -16.4 °C -5.1 °F /  -20.6 °C 30.82in /  1043.6hPa WNW 2.3mph /  3.7km/h 2.9mph /  4.7km/h 70% 0.00in /  0mm 0.0 W/m2
17:19 2.5 °F /  -16.4 °C -5.1 °F /  -20.6 °C 30.82in /  1043.6hPa WNW 4.6mph /  7.4km/h 4.6mph /  7.4km/h 70% 0.00in /  0mm 0.0 W/m2
17:24 2.5 °F /  -16.4 °C -5.1 °F /  -20.6 °C 30.82in /  1043.6hPa WNW 3.5mph /  5.6km/h 3.5mph /  5.6km/h 70% 0.00in /  0mm 0.0 W/m2
17:29 2.5 °F /  -16.4 °C -5.1 °F /  -20.6 °C 30.82in /  1043.6hPa WNW 1.2mph /  1.9km/h   70% 0.00in /  0mm 0.0 W/m2
17:30 2.5 °F /  -16.4 °C -5.1 °F /  -20.6 °C 30.82in /  1043.6hPa WNW 1.2mph /  1.9km/h 1.2mph /  1.9km/h 70% 0.00in /  0mm 0.0 W/m2
17:35 2.5 °F /  -16.4 °C -5.1 °F /  -20.6 °C 30.82in /  1043.6hPa WNW 1.2mph /  1.9km/h   70% 0.00in /  0mm 0.0 W/m2
17:37 2.5 °F /  -16.4 °C -5.1 °F /  -20.6 °C 30.82in /  1043.6hPa WNW 1.2mph /  1.9km/h 1.2mph /  1.9km/h 70% 0.00in /  0mm 0.0 W/m2
17:39 2.4 °F /  -16.4 °C -5.2 °F /  -20.7 °C 30.82in /  1043.6hPa WNW 2.0mph /  3.2km/h 2.0mph /  3.2km/h 70% 0.00in /  0mm 0.0 W/m2
17:42 2.4 °F /  -16.4 °C -5.2 °F /  -20.7 °C 30.82in /  1043.6hPa WNW 3.5mph /  5.6km/h 3.5mph /  5.6km/h 70% 0.00in /  0mm 0.0 W/m2
17:47 2.2 °F /  -16.6 °C -5.4 °F /  -20.8 °C 30.82in /  1043.6hPa WNW 1.2mph /  1.9km/h 1.2mph /  1.9km/h 70% 0.00in /  0mm 0.0 W/m2
17:50 2.0 °F /  -16.7 °C -5.5 °F /  -20.8 °C 30.82in /  1043.6hPa WNW 1.2mph /  1.9km/h 1.2mph /  1.9km/h 70% 0.00in /  0mm 0.0 W/m2
17:53 1.9 °F /  -16.7 °C -5.6 °F /  -20.9 °C 30.82in /  1043.6hPa NW 4.6mph /  7.4km/h 4.6mph /  7.4km/h 70% 0.00in /  0mm 0.0 W/m2
17:56 1.7 °F /  -16.8 °C -5.8 °F /  -21 °C 30.82in /  1043.6hPa NW 3.5mph /  5.6km/h 3.5mph /  5.6km/h 70% 0.00in /  0mm 0.0 W/m2
18:01 1.5 °F /  -16.9 °C -6.0 °F /  -21.1 °C 30.82in /  1043.6hPa WNW 3.5mph /  5.6km/h 3.5mph /  5.6km/h 70% 0.00in /  0mm 0.0 W/m2
18:06 1.3 °F /  -17.1 °C -5.9 °F /  -21.1 °C 30.82in /  1043.6hPa WNW 2.0mph /  3.2km/h 2.0mph /  3.2km/h 71% 0.00in /  0mm 0.0 W/m2
18:08 1.3 °F /  -17.1 °C -5.9 °F /  -21.1 °C 30.82in /  1043.6hPa WNW 1.2mph /  1.9km/h 1.2mph /  1.9km/h 71% 0.00in /  0mm 0.0 W/m2
18:13 1.2 °F /  -17.1 °C -6.0 °F /  -21.1 °C 30.82in /  1043.6hPa WNW 2.3mph /  3.7km/h 2.3mph /  3.7km/h 71% 0.00in /  0mm 0.0 W/m2
18:14 1.2 °F /  -17.1 °C -5.7 °F /  -20.9 °C 30.82in /  1043.6hPa WNW 2.3mph /  3.7km/h 2.3mph /  3.7km/h 72% 0.00in /  0mm 0.0 W/m2
18:15 1.1 °F /  -17.2 °C -5.8 °F /  -21 °C 30.82in /  1043.6hPa WNW 2.3mph /  3.7km/h 2.3mph /  3.7km/h 72% 0.00in /  0mm 0.0 W/m2
18:19 1.0 °F /  -17.2 °C -5.9 °F /  -21.1 °C 30.82in /  1043.6hPa WNW 2.3mph /  3.7km/h 2.3mph /  3.7km/h 72% 0.00in /  0mm 0.0 W/m2
18:20 1.0 °F /  -17.2 °C -5.9 °F /  -21.1 °C 30.82in /  1043.6hPa WNW 1.2mph /  1.9km/h 1.2mph /  1.9km/h 72% 0.00in /  0mm 0.0 W/m2
18:25 0.9 °F /  -17.3 °C -6.0 °F /  -21.1 °C 30.83in /  1043.9hPa WNW 3.5mph /  5.6km/h 3.5mph /  5.6km/h 72% 0.00in /  0mm 0.0 W/m2
18:26 0.9 °F /  -17.3 °C -6.0 °F /  -21.1 °C 30.83in /  1043.9hPa WNW 2.0mph /  3.2km/h 2.0mph /  3.2km/h 72% 0.00in /  0mm 0.0 W/m2
18:31 0.8 °F /  -17.3 °C -5.8 °F /  -21 °C 30.83in /  1043.9hPa WNW 1.2mph /  1.9km/h   73% 0.00in /  0mm 0.0 W/m2
18:32 0.8 °F /  -17.3 °C -5.8 °F /  -21 °C 30.83in /  1043.9hPa Calm     73% 0.00in /  0mm 0.0 W/m2
18:37 0.8 °F /  -17.3 °C -5.8 °F /  -21 °C 30.83in /  1043.9hPa WNW 2.3mph /  3.7km/h 2.3mph /  3.7km/h 73% 0.00in /  0mm 0.0 W/m2
18:40 0.7 °F /  -17.4 °C -5.9 °F /  -21.1 °C 30.83in /  1043.9hPa WNW 1.2mph /  1.9km/h 1.2mph /  1.9km/h 73% 0.00in /  0mm 0.0 W/m2
18:44 0.6 °F /  -17.4 °C -5.7 °F /  -20.9 °C 30.83in /  1043.9hPa WNW 2.3mph /  3.7km/h 2.3mph /  3.7km/h 74% 0.00in /  0mm 0.0 W/m2
18:47 0.6 °F /  -17.4 °C -5.7 °F /  -20.9 °C 30.82in /  1043.6hPa WNW 4.6mph /  7.4km/h 4.6mph /  7.4km/h 74% 0.00in /  0mm 0.0 W/m2
18:50 0.5 °F /  -17.5 °C -5.8 °F /  -21 °C 30.83in /  1043.9hPa WNW 3.5mph /  5.6km/h 3.5mph /  5.6km/h 74% 0.00in /  0mm 0.0 W/m2
18:54 0.5 °F /  -17.5 °C -5.8 °F /  -21 °C 30.83in /  1043.9hPa WNW 3.5mph /  5.6km/h 3.5mph /  5.6km/h 74% 0.00in /  0mm 0.0 W/m2
18:55 0.5 °F /  -17.5 °C -5.8 °F /  -21 °C 30.83in /  1043.9hPa WNW 3.5mph /  5.6km/h 3.5mph /  5.6km/h 74% 0.00in /  0mm 0.0 W/m2
18:59 0.4 °F /  -17.6 °C -5.9 °F /  -21.1 °C 30.83in /  1043.9hPa WNW 2.3mph /  3.7km/h 2.3mph /  3.7km/h 74% 0.00in /  0mm 0.0 W/m2
19:00 0.3 °F /  -17.6 °C -6.0 °F /  -21.1 °C 30.83in /  1043.9hPa WNW 2.3mph /  3.7km/h 2.3mph /  3.7km/h 74% 0.00in /  0mm 0.0 W/m2
19:05 0.2 °F /  -17.7 °C -6.1 °F /  -21.2 °C 30.83in /  1043.9hPa WNW 2.3mph /  3.7km/h 2.3mph /  3.7km/h 74% 0.00in /  0mm 0.0 W/m2
19:06 0.2 °F /  -17.7 °C -6.1 °F /  -21.2 °C 30.83in /  1043.9hPa WNW 3.5mph /  5.6km/h 3.5mph /  5.6km/h 74% 0.00in /  0mm 0.0 W/m2
19:10 0.1 °F /  -17.7 °C -5.9 °F /  -21.1 °C 30.82in /  1043.6hPa WNW 2.3mph /  3.7km/h 2.3mph /  3.7km/h 75% 0.00in /  0mm 0.0 W/m2
19:11 0.1 °F /  -17.7 °C -5.9 °F /  -21.1 °C 30.82in /  1043.6hPa WNW 2.3mph /  3.7km/h   75% 0.00in /  0mm 0.0 W/m2
19:16 0.1 °F /  -17.7 °C -5.9 °F /  -21.1 °C 30.83in /  1043.9hPa Calm     75% 0.00in /  0mm 0.0 W/m2
19:21 0.0 °F /  -17.8 °C -6.0 °F /  -21.1 °C 30.83in /  1043.9hPa WNW 1.2mph /  1.9km/h   75% 0.00in /  0mm 0.0 W/m2
19:26 -0.1 °F /  -17.8 °C -6.1 °F /  -21.2 °C 30.82in /  1043.6hPa WNW 2.3mph /  3.7km/h 2.3mph /  3.7km/h 75% 0.00in /  0mm 0.0 W/m2
19:31 -0.3 °F /  -17.9 °C -6.3 °F /  -21.3 °C 30.82in /  1043.6hPa WNW 3.5mph /  5.6km/h 3.5mph /  5.6km/h 75% 0.00in /  0mm 0.0 W/m2
19:33 -0.4 °F /  -18 °C -6.4 °F /  -21.3 °C 30.82in /  1043.6hPa WNW 3.5mph /  5.6km/h 3.5mph /  5.6km/h 75% 0.00in /  0mm 0.0 W/m2
19:37 -0.5 °F /  -18.1 °C -6.5 °F /  -21.4 °C 30.81in /  1043.2hPa WNW 1.2mph /  1.9km/h   75% 0.00in /  0mm 0.0 W/m2
19:40 -0.6 °F /  -18.1 °C -6.4 °F /  -21.3 °C 30.81in /  1043.2hPa Calm     76% 0.00in /  0mm 0.0 W/m2
19:45 -0.8 °F /  -18.2 °C -6.8 °F /  -21.6 °C 30.81in /  1043.2hPa Calm     75% 0.00in /  0mm 0.0 W/m2
19:50 -1.4 °F /  -18.6 °C -8.0 °F /  -22.2 °C 30.81in /  1043.2hPa Calm     73% 0.00in /  0mm 0.0 W/m2
19:55 -2.4 °F /  -19.1 °C -9.2 °F /  -22.9 °C 30.81in /  1043.2hPa Calm     72% 0.00in /  0mm 0.0 W/m2
19:56 -2.5 °F /  -19.2 °C -9.3 °F /  -22.9 °C 30.81in /  1043.2hPa Calm     72% 0.00in /  0mm 0.0 W/m2
19:58 -2.8 °F /  -19.3 °C -9.6 °F /  -23.1 °C 30.81in /  1043.2hPa Calm     72% 0.00in /  0mm 0.0 W/m2
20:01 -3.1 °F /  -19.5 °C -9.9 °F /  -23.3 °C 30.80in /  1042.9hPa Calm     72% 0.00in /  0mm 0.0 W/m2
20:05 -3.3 °F /  -19.6 °C -9.8 °F /  -23.2 °C 30.80in /  1042.9hPa Calm     73% 0.00in /  0mm 0.0 W/m2
20:07 -3.5 °F /  -19.7 °C -10.0 °F /  -23.3 °C 30.80in /  1042.9hPa Calm     73% 0.00in /  0mm 0.0 W/m2
20:12 -3.7 °F /  -19.8 °C -10.2 °F /  -23.4 °C 30.80in /  1042.9hPa Calm     73% 0.00in /  0mm 0.0 W/m2
20:16 -4.0 °F /  -20 °C -10.5 °F /  -23.6 °C 30.80in /  1042.9hPa Calm     73% 0.00in /  0mm 0.0 W/m2
20:17 -4.1 °F /  -20.1 °C -10.6 °F /  -23.7 °C 30.80in /  1042.9hPa Calm     73% 0.00in /  0mm 0.0 W/m2
20:21 -4.4 °F /  -20.2 °C -10.9 °F /  -23.8 °C 30.79in /  1042.5hPa Calm     73% 0.00in /  0mm 0.0 W/m2
20:24 -4.8 °F /  -20.4 °C -11.3 °F /  -24.1 °C 30.79in /  1042.5hPa Calm     73% 0.00in /  0mm 0.0 W/m2
20:29 -5.0 °F /  -20.6 °C -10.9 °F /  -23.8 °C 30.79in /  1042.5hPa Calm     75% 0.00in /  0mm 0.0 W/m2
20:30 -5.0 °F /  -20.6 °C -10.6 °F /  -23.7 °C 30.79in /  1042.5hPa Calm     76% 0.00in /  0mm 0.0 W/m2
20:33 -5.0 °F /  -20.6 °C -10.6 °F /  -23.7 °C 30.79in /  1042.5hPa Calm     76% 0.00in /  0mm 0.0 W/m2
20:37 -5.4 °F /  -20.8 °C -11.0 °F /  -23.9 °C 30.79in /  1042.5hPa Calm     76% 0.00in /  0mm 0.0 W/m2
20:40 -5.5 °F /  -20.8 °C -11.1 °F /  -23.9 °C 30.79in /  1042.5hPa Calm     76% 0.00in /  0mm 0.0 W/m2
20:44 -5.4 °F /  -20.8 °C -10.8 °F /  -23.8 °C 30.79in /  1042.5hPa Calm     77% 0.00in /  0mm 0.0 W/m2
20:46 -5.3 °F /  -20.7 °C -10.4 °F /  -23.6 °C 30.79in /  1042.5hPa Calm     78% 0.00in /  0mm 0.0 W/m2
20:50 -5.1 °F /  -20.6 °C -10.2 °F /  -23.4 °C 30.80in /  1042.9hPa Calm     78% 0.00in /  0mm 0.0 W/m2
20:56 -4.5 °F /  -20.3 °C -9.1 °F /  -22.8 °C 30.80in /  1042.9hPa Calm     80% 0.00in /  0mm 0.0 W/m2
20:57 -4.4 °F /  -20.2 °C -9.0 °F /  -22.8 °C 30.80in /  1042.9hPa Calm     80% 0.00in /  0mm 0.0 W/m2
21:02 -3.7 °F /  -19.8 °C -8.1 °F /  -22.3 °C 30.80in /  1042.9hPa Calm     81% 0.00in /  0mm 0.0 W/m2
21:06 -3.6 °F /  -19.8 °C -8.0 °F /  -22.2 °C 30.80in /  1042.9hPa Calm     81% 0.00in /  0mm 0.0 W/m2
21:07 -3.6 °F /  -19.8 °C -8.0 °F /  -22.2 °C 30.80in /  1042.9hPa Calm     81% 0.00in /  0mm 0.0 W/m2
21:13 -4.0 °F /  -20 °C -8.9 °F /  -22.7 °C 30.80in /  1042.9hPa Calm     79% 0.00in /  0mm 0.0 W/m2
21:18 -4.1 °F /  -20.1 °C -8.7 °F /  -22.6 °C 30.81in /  1043.2hPa Calm     80% 0.00in /  0mm 0.0 W/m2
21:20 -4.0 °F /  -20 °C -8.6 °F /  -22.6 °C 30.81in /  1043.2hPa Calm     80% 0.00in /  0mm 0.0 W/m2
21:22 -3.8 °F /  -19.9 °C -8.2 °F /  -22.3 °C 30.81in /  1043.2hPa Calm     81% 0.00in /  0mm 0.0 W/m2
21:26 -3.5 °F /  -19.7 °C -7.9 °F /  -22.2 °C 30.81in /  1043.2hPa Calm     81% 0.00in /  0mm 0.0 W/m2
21:27 -3.4 °F /  -19.7 °C -7.5 °F /  -21.9 °C 30.81in /  1043.2hPa Calm     82% 0.00in /  0mm 0.0 W/m2
21:31 -3.2 °F /  -19.6 °C -7.3 °F /  -21.8 °C 30.81in /  1043.2hPa Calm     82% 0.00in /  0mm 0.0 W/m2
21:36 -3.1 °F /  -19.5 °C -7.2 °F /  -21.8 °C 30.81in /  1043.2hPa Calm     82% 0.00in /  0mm 0.0 W/m2
21:41 -3.0 °F /  -19.4 °C -7.1 °F /  -21.7 °C 30.82in /  1043.6hPa Calm     82% 0.00in /  0mm 0.0 W/m2
21:42 -2.9 °F /  -19.4 °C -7.0 °F /  -21.7 °C 30.82in /  1043.6hPa Calm     82% 0.00in /  0mm 0.0 W/m2
21:46 -2.7 °F /  -19.3 °C -6.8 °F /  -21.6 °C 30.82in /  1043.6hPa Calm     82% 0.00in /  0mm 0.0 W/m2
21:50 -2.4 °F /  -19.1 °C -6.3 °F /  -21.3 °C 30.81in /  1043.2hPa Calm     83% 0.00in /  0mm 0.0 W/m2
21:51 -2.3 °F /  -19.1 °C -6.2 °F /  -21.2 °C 30.81in /  1043.2hPa Calm     83% 0.00in /  0mm 0.0 W/m2
21:56 -2.0 °F /  -18.9 °C -5.9 °F /  -21.1 °C 30.81in /  1043.2hPa Calm     83% 0.00in /  0mm 0.0 W/m2
21:57 -2.1 °F /  -18.9 °C -6.0 °F /  -21.1 °C 30.81in /  1043.2hPa Calm     83% 0.00in /  0mm 0.0 W/m2
22:02 -1.8 °F /  -18.8 °C -5.7 °F /  -20.9 °C 30.81in /  1043.2hPa Calm     83% 0.00in /  0mm 0.0 W/m2
22:05 -1.6 °F /  -18.7 °C -5.5 °F /  -20.8 °C 30.81in /  1043.2hPa Calm     83% 0.00in /  0mm 0.0 W/m2
22:08 -1.6 °F /  -18.7 °C -5.5 °F /  -20.8 °C 30.81in /  1043.2hPa Calm     83% 0.00in /  0mm 0.0 W/m2
22:13 -2.1 °F /  -18.9 °C -6.5 °F /  -21.4 °C 30.80in /  1042.9hPa Calm     81% 0.00in /  0mm 0.0 W/m2
22:14 -2.2 °F /  -19 °C -6.6 °F /  -21.4 °C 30.80in /  1042.9hPa Calm     81% 0.00in /  0mm 0.0 W/m2
22:17 -2.4 °F /  -19.1 °C -7.1 °F /  -21.7 °C 30.80in /  1042.9hPa Calm     80% 0.00in /  0mm 0.0 W/m2
22:20 -2.6 °F /  -19.2 °C -7.2 °F /  -21.8 °C 30.80in /  1042.9hPa Calm     80% 0.00in /  0mm 0.0 W/m2
22:22 -2.8 °F /  -19.3 °C -7.4 °F /  -21.9 °C 30.80in /  1042.9hPa Calm     80% 0.00in /  0mm 0.0 W/m2
22:23 -2.8 °F /  -19.3 °C -7.7 °F /  -22.1 °C 30.79in /  1042.5hPa Calm     79% 0.00in /  0mm 0.0 W/m2
22:27 -3.1 °F /  -19.5 °C -8.0 °F /  -22.2 °C 30.79in /  1042.5hPa Calm     79% 0.00in /  0mm 0.0 W/m2
22:30 -3.2 °F /  -19.6 °C -8.1 °F /  -22.3 °C 30.79in /  1042.5hPa Calm     79% 0.00in /  0mm 0.0 W/m2
22:32 -3.3 °F /  -19.6 °C -8.2 °F /  -22.3 °C 30.79in /  1042.5hPa Calm     79% 0.00in /  0mm 0.0 W/m2
22:37 -3.5 °F /  -19.7 °C -8.4 °F /  -22.4 °C 30.79in /  1042.5hPa Calm     79% 0.00in /  0mm 0.0 W/m2
22:42 -3.6 °F /  -19.8 °C -8.7 °F /  -22.6 °C 30.80in /  1042.9hPa Calm     78% 0.00in /  0mm 0.0 W/m2
22:43 -3.6 °F /  -19.8 °C -8.5 °F /  -22.5 °C 30.80in /  1042.9hPa Calm     79% 0.00in /  0mm 0.0 W/m2
22:48 -3.6 °F /  -19.8 °C -8.5 °F /  -22.5 °C 30.81in /  1043.2hPa Calm     79% 0.00in /  0mm 0.0 W/m2
22:53 -3.1 °F /  -19.5 °C -7.5 °F /  -21.9 °C 30.81in /  1043.2hPa Calm     81% 0.00in /  0mm 0.0 W/m2
22:58 -2.4 °F /  -19.1 °C -6.3 °F /  -21.3 °C 30.81in /  1043.2hPa Calm     83% 0.00in /  0mm 0.0 W/m2
22:59 -2.3 °F /  -19.1 °C -6.2 °F /  -21.2 °C 30.82in /  1043.6hPa Calm     83% 0.00in /  0mm 0.0 W/m2
23:04 -1.7 °F /  -18.7 °C -5.6 °F /  -20.9 °C 30.82in /  1043.6hPa WNW 2.3mph /  3.7km/h 2.3mph /  3.7km/h 83% 0.00in /  0mm 0.0 W/m2
23:07 -1.5 °F /  -18.6 °C -5.4 °F /  -20.8 °C 30.82in /  1043.6hPa WNW 1.2mph /  1.9km/h 1.2mph /  1.9km/h 83% 0.00in /  0mm 0.0 W/m2
23:12 -1.3 °F /  -18.5 °C -5.5 °F /  -20.8 °C 30.82in /  1043.6hPa WNW 3.5mph /  5.6km/h 3.5mph /  5.6km/h 82% 0.00in /  0mm 0.0 W/m2
23:17 -1.2 °F /  -18.4 °C -5.4 °F /  -20.8 °C 30.82in /  1043.6hPa Calm     82% 0.00in /  0mm 0.0 W/m2
23:21 -1.1 °F /  -18.4 °C -5.3 °F /  -20.7 °C 30.81in /  1043.2hPa WNW 1.2mph /  1.9km/h 1.2mph /  1.9km/h 82% 0.00in /  0mm 0.0 W/m2
23:23 -1.1 °F /  -18.4 °C -5.3 °F /  -20.7 °C 30.81in /  1043.2hPa Calm     82% 0.00in /  0mm 0.0 W/m2
23:27 -1.1 °F /  -18.4 °C -5.5 °F /  -20.8 °C 30.81in /  1043.2hPa Calm     81% 0.00in /  0mm 0.0 W/m2
23:28 -1.1 °F /  -18.4 °C -5.5 °F /  -20.8 °C 30.80in /  1042.9hPa Calm     81% 0.00in /  0mm 0.0 W/m2
23:32 -1.1 °F /  -18.4 °C -5.5 °F /  -20.8 °C 30.80in /  1042.9hPa Calm     81% 0.00in /  0mm 0.0 W/m2
23:36 -1.2 °F /  -18.4 °C -5.6 °F /  -20.9 °C 30.80in /  1042.9hPa Calm     81% 0.00in /  0mm 0.0 W/m2
23:40 -1.2 °F /  -18.4 °C -5.6 °F /  -20.9 °C 30.80in /  1042.9hPa Calm     81% 0.00in /  0mm 0.0 W/m2
23:43 -1.2 °F /  -18.4 °C -5.6 °F /  -20.9 °C 30.80in /  1042.9hPa WNW 1.2mph /  1.9km/h   81% 0.00in /  0mm 0.0 W/m2
23:48 -1.1 °F /  -18.4 °C -5.5 °F /  -20.8 °C 30.80in /  1042.9hPa Calm     81% 0.00in /  0mm 0.0 W/m2
23:53 -1.1 °F /  -18.4 °C -5.5 °F /  -20.8 °C 30.80in /  1042.9hPa Calm     81% 0.00in /  0mm 0.0 W/m2
23:54 -1.1 °F /  -18.4 °C -5.5 °F /  -20.8 °C 30.80in /  1042.9hPa Calm     81% 0.00in /  0mm 0.0 W/m2
23:58 -1.1 °F /  -18.4 °C -5.5 °F /  -20.8 °C 30.80in /  1042.9hPa WNW 1.2mph /  1.9km/h 1.2mph /  1.9km/h 81% 0.00in /  0mm 0.0 W/m2
23:59 -1.0 °F /  -18.3 °C -5.4 °F /  -20.8 °C 30.80in /  1042.9hPa WNW 1.2mph /  1.9km/h 1.2mph /  1.9km/h 81% 0.00in /  0mm 0.0 W/m2
Bourbonnais, Illinois, USA
Compliments of Weather Underground - 4 mb